Time,TemperatureF,DewpointF,PressureIn,WindDirection,WindDirectionDegrees,WindSpeedMPH,WindSpeedGustMPH,Humidity,HourlyPrecipIn,Conditions,Clouds,dailyrainin,SolarRadiationWatts/m^2,SoftwareType,DateUTC
2013-05-06 00:00:00,56.6,51.2,29.92,NE,54,0.0,0.0,82,0.00,,,0.00,0.00,VWS V14.01,2013-05-06 04:00:00,
2013-05-06 00:01:00,56.6,51.2,29.92,NE,54,0.0,0.0,82,0.00,,,0.00,0.00,VWS V14.01,2013-05-06 04:01:00,
2013-05-06 00:06:00,56.2,51.4,29.91,NE,54,0.0,0.0,84,0.00,,,0.00,0.00,VWS V14.01,2013-05-06 04:06:00,
2013-05-06 00:11:00,55.8,51.0,29.91,NE,54,0.0,0.0,84,0.00,,,0.00,0.00,VWS V14.01,2013-05-06 04:11:00,
2013-05-06 00:16:00,55.6,50.8,29.91,NE,54,0.0,0.0,84,0.00,,,0.00,0.00,VWS V14.01,2013-05-06 04:16:00,
2013-05-06 00:21:00,55.4,50.7,29.91,NE,54,0.0,0.0,84,0.00,,,0.00,0.00,VWS V14.01,2013-05-06 04:21:00,
2013-05-06 00:26:00,55.4,48.0,29.91,NE,54,0.0,1.0,76,0.00,,,0.00,0.00,VWS V14.01,2013-05-06 04:26:00,
2013-05-06 00:31:00,56.2,46.9,29.91,NE,54,0.0,1.0,71,0.00,,,0.00,0.00,VWS V14.01,2013-05-06 04:31:00,
2013-05-06 00:36:00,57.0,46.9,29.91,NE,54,0.0,0.0,69,0.00,,,0.00,0.00,VWS V14.01,2013-05-06 04:36:00,
2013-05-06 00:41:00,57.4,46.9,29.91,NE,54,0.0,0.0,68,0.00,,,0.00,0.00,VWS V14.01,2013-05-06 04:41:00,
2013-05-06 00:42:00,57.5,47.0,29.91,NE,54,0.0,0.0,68,0.00,,,0.00,0.00,VWS V14.01,2013-05-06 04:42:00,
2013-05-06 00:46:00,57.7,46.4,29.91,NE,54,0.0,1.0,66,0.00,,,0.00,0.00,VWS V14.01,2013-05-06 04:46:00,
2013-05-06 00:47:00,57.7,46.4,29.91,NE,54,0.0,0.0,66,0.00,,,0.00,0.00,VWS V14.01,2013-05-06 04:47:00,
2013-05-06 00:51:00,57.8,46.5,29.91,NE,54,0.0,0.0,66,0.00,,,0.00,0.00,VWS V14.01,2013-05-06 04:51:00,
2013-05-06 00:52:00,57.8,46.5,29.91,NE,54,0.0,0.0,66,0.00,,,0.00,0.00,VWS V14.01,2013-05-06 04:52:00,
2013-05-06 00:56:00,58.0,46.3,29.91,NE,54,0.0,0.0,65,0.00,,,0.00,0.00,VWS V14.01,2013-05-06 04:56:00,
2013-05-06 00:57:00,58.0,46.3,29.91,NE,54,0.0,0.0,65,0.00,,,0.00,0.00,VWS V14.01,2013-05-06 04:57:00,
2013-05-06 01:01:00,58.1,46.0,29.91,NE,54,0.0,0.0,64,0.00,,,0.00,0.00,VWS V14.01,2013-05-06 05:01:00,
2013-05-06 01:02:00,58.1,46.4,29.91,NE,54,1.0,1.0,65,0.00,,,0.00,0.00,VWS V14.01,2013-05-06 05:02:00,
2013-05-06 01:06:00,58.2,45.7,29.91,NE,54,0.0,1.0,63,0.00,,,0.00,0.00,VWS V14.01,2013-05-06 05:06:00,
2013-05-06 01:07:00,58.2,45.7,29.91,NE,54,0.0,1.0,63,0.00,,,0.00,0.00,VWS V14.01,2013-05-06 05:07:00,
2013-05-06 01:11:00,58.3,46.2,29.91,NE,54,0.0,1.0,64,0.00,,,0.00,0.00,VWS V14.01,2013-05-06 05:11:00,
2013-05-06 01:12:00,58.3,46.2,29.91,NE,54,1.0,1.0,64,0.00,,,0.00,0.00,VWS V14.01,2013-05-06 05:12:00,
2013-05-06 01:16:00,58.3,45.8,29.91,NE,54,0.0,1.0,63,0.00,,,0.00,0.00,VWS V14.01,2013-05-06 05:16:00,
2013-05-06 01:17:00,58.3,45.8,29.91,NE,54,0.0,1.0,63,0.00,,,0.00,0.00,VWS V14.01,2013-05-06 05:17:00,
2013-05-06 01:21:00,58.3,46.2,29.91,NE,54,0.0,1.0,64,0.00,,,0.00,0.00,VWS V14.01,2013-05-06 05:21:00,
2013-05-06 01:22:00,58.3,46.2,29.91,NE,54,0.0,1.0,64,0.00,,,0.00,0.00,VWS V14.01,2013-05-06 05:22:00,
2013-05-06 01:27:00,58.3,45.8,29.91,NE,54,1.0,1.0,63,0.00,,,0.00,0.00,VWS V14.01,2013-05-06 05:27:00,
2013-05-06 01:32:00,58.3,45.8,29.91,NE,54,0.0,2.0,63,0.00,,,0.00,0.00,VWS V14.01,2013-05-06 05:32:00,
2013-05-06 01:37:00,58.3,45.8,29.91,NE,54,2.0,2.0,63,0.00,,,0.00,0.00,VWS V14.01,2013-05-06 05:37:00,
2013-05-06 01:42:00,58.2,45.7,29.91,NE,54,3.0,3.0,63,0.00,,,0.00,0.00,VWS V14.01,2013-05-06 05:42:00,
2013-05-06 01:47:00,58.2,45.7,29.90,NE,54,0.0,0.0,63,0.00,,,0.00,0.00,VWS V14.01,2013-05-06 05:47:00,
2013-05-06 01:52:00,58.2,45.7,29.90,NE,54,0.0,0.0,63,0.00,,,0.00,0.00,VWS V14.01,2013-05-06 05:52:00,
2013-05-06 01:57:00,58.1,45.6,29.90,NE,54,0.0,0.0,63,0.00,,,0.00,0.00,VWS V14.01,2013-05-06 05:57:00,
2013-05-06 01:58:00,58.1,45.6,29.90,NE,54,1.0,3.0,63,0.00,,,0.00,0.00,VWS V14.01,2013-05-06 05:58:00,
2013-05-06 02:02:00,58.1,46.0,29.90,NE,54,0.0,0.0,64,0.00,,,0.00,0.00,VWS V14.01,2013-05-06 06:02:00,
2013-05-06 02:03:00,58.1,46.0,29.90,NE,54,2.0,2.0,64,0.00,,,0.00,0.00,VWS V14.01,2013-05-06 06:03:00,
2013-05-06 02:07:00,58.0,45.9,29.90,ENE,59,0.0,1.0,64,0.00,,,0.00,0.00,VWS V14.01,2013-05-06 06:07:00,
2013-05-06 02:08:00,58.0,45.9,29.90,ENE,59,1.0,1.0,64,0.00,,,0.00,0.00,VWS V14.01,2013-05-06 06:08:00,
2013-05-06 02:12:00,58.0,45.9,29.90,ENE,59,0.0,1.0,64,0.00,,,0.00,0.00,VWS V14.01,2013-05-06 06:12:00,
2013-05-06 02:13:00,58.0,45.9,29.90,ENE,59,0.0,1.0,64,0.00,,,0.00,0.00,VWS V14.01,2013-05-06 06:13:00,
2013-05-06 02:17:00,57.9,45.8,29.90,ENE,59,0.0,1.0,64,0.00,,,0.00,0.00,VWS V14.01,2013-05-06 06:17:00,
2013-05-06 02:18:00,57.9,45.8,29.90,ENE,60,0.0,0.0,64,0.00,,,0.00,0.00,VWS V14.01,2013-05-06 06:18:00,
2013-05-06 02:22:00,57.8,45.7,29.90,ENE,60,0.0,1.0,64,0.00,,,0.00,0.00,VWS V14.01,2013-05-06 06:22:00,
2013-05-06 02:23:00,57.8,45.7,29.90,ENE,60,2.0,2.0,64,0.00,,,0.00,0.00,VWS V14.01,2013-05-06 06:23:00,
2013-05-06 02:27:00,57.7,45.6,29.90,ENE,63,3.0,4.0,64,0.00,,,0.00,0.00,VWS V14.01,2013-05-06 06:27:00,
2013-05-06 02:28:00,57.7,46.0,29.90,ENE,63,1.0,2.0,65,0.00,,,0.00,0.00,VWS V14.01,2013-05-06 06:28:00,
2013-05-06 02:32:00,57.6,45.9,29.90,ENE,64,0.0,1.0,65,0.00,,,0.00,0.00,VWS V14.01,2013-05-06 06:32:00,
2013-05-06 02:33:00,57.6,45.9,29.90,ENE,67,0.0,2.0,65,0.00,,,0.00,0.00,VWS V14.01,2013-05-06 06:33:00,
2013-05-06 02:37:00,57.5,45.4,29.90,ENE,67,0.0,1.0,64,0.00,,,0.00,0.00,VWS V14.01,2013-05-06 06:37:00,
2013-05-06 02:38:00,57.5,45.8,29.89,ENE,67,0.0,1.0,65,0.00,,,0.00,0.00,VWS V14.01,2013-05-06 06:38:00,
2013-05-06 02:42:00,57.5,45.8,29.90,ENE,78,0.0,2.0,65,0.00,,,0.00,0.00,VWS V14.01,2013-05-06 06:42:00,
2013-05-06 02:43:00,57.5,45.8,29.90,ENE,78,0.0,2.0,65,0.00,,,0.00,0.00,VWS V14.01,2013-05-06 06:43:00,
2013-05-06 02:47:00,57.4,45.8,29.89,ENE,78,0.0,1.0,65,0.00,,,0.00,0.00,VWS V14.01,2013-05-06 06:47:00,
2013-05-06 02:48:00,57.4,45.8,29.89,ENE,78,0.0,1.0,65,0.00,,,0.00,0.00,VWS V14.01,2013-05-06 06:48:00,
2013-05-06 02:49:00,57.4,45.8,29.89,ENE,78,1.0,1.0,65,0.00,,,0.00,0.00,VWS V14.01,2013-05-06 06:49:00,
2013-05-06 02:52:00,57.3,45.7,29.89,ENE,78,0.0,1.0,65,0.00,,,0.00,0.00,VWS V14.01,2013-05-06 06:52:00,
2013-05-06 02:53:00,57.3,45.7,29.89,ENE,78,1.0,1.0,65,0.00,,,0.00,0.00,VWS V14.01,2013-05-06 06:53:00,
2013-05-06 02:54:00,57.2,45.6,29.89,ESE,104,1.0,4.0,65,0.00,,,0.00,0.00,VWS V14.01,2013-05-06 06:54:00,
2013-05-06 02:57:00,57.2,45.6,29.89,ESE,104,1.0,2.0,65,0.00,,,0.00,0.00,VWS V14.01,2013-05-06 06:57:00,
2013-05-06 02:58:00,57.2,45.6,29.89,ESE,104,0.0,0.0,65,0.00,,,0.00,0.00,VWS V14.01,2013-05-06 06:58:00,
2013-05-06 02:59:00,57.2,45.6,29.89,ESE,104,0.0,0.0,65,0.00,,,0.00,0.00,VWS V14.01,2013-05-06 06:59:00,
2013-05-06 03:02:00,57.2,45.6,29.89,ESE,104,0.0,0.0,65,0.00,,,0.00,0.00,VWS V14.01,2013-05-06 07:02:00,
2013-05-06 03:03:00,57.1,45.5,29.89,ESE,104,0.0,0.0,65,0.00,,,0.00,0.00,VWS V14.01,2013-05-06 07:03:00,
2013-05-06 03:04:00,57.2,45.6,29.89,ESE,104,0.0,1.0,65,0.00,,,0.00,0.00,VWS V14.01,2013-05-06 07:04:00,
2013-05-06 03:07:00,57.2,45.6,29.89,ESE,104,0.0,1.0,65,0.00,,,0.00,0.00,VWS V14.01,2013-05-06 07:07:00,
2013-05-06 03:08:00,57.1,45.5,29.89,ESE,104,0.0,1.0,65,0.00,,,0.00,0.00,VWS V14.01,2013-05-06 07:08:00,
2013-05-06 03:09:00,57.1,45.9,29.89,ESE,104,0.0,0.0,66,0.00,,,0.00,0.00,VWS V14.01,2013-05-06 07:09:00,
2013-05-06 03:12:00,57.1,45.5,29.89,ESE,104,0.0,1.0,65,0.00,,,0.00,0.00,VWS V14.01,2013-05-06 07:12:00,
2013-05-06 03:13:00,57.0,45.4,29.89,ESE,104,0.0,0.0,65,0.00,,,0.00,0.00,VWS V14.01,2013-05-06 07:13:00,
2013-05-06 03:14:00,57.0,45.8,29.89,ESE,104,0.0,1.0,66,0.00,,,0.00,0.00,VWS V14.01,2013-05-06 07:14:00,
2013-05-06 03:17:00,57.0,45.8,29.89,ESE,104,0.0,1.0,66,0.00,,,0.00,0.00,VWS V14.01,2013-05-06 07:17:00,
2013-05-06 03:18:00,56.9,45.7,29.89,ESE,104,0.0,0.0,66,0.00,,,0.00,0.00,VWS V14.01,2013-05-06 07:18:00,
2013-05-06 03:19:00,56.9,45.7,29.89,ESE,104,0.0,0.0,66,0.00,,,0.00,0.00,VWS V14.01,2013-05-06 07:19:00,
2013-05-06 03:23:00,56.9,45.7,29.89,ESE,104,1.0,3.0,66,0.00,,,0.00,0.00,VWS V14.01,2013-05-06 07:23:00,
2013-05-06 03:24:00,56.9,45.7,29.89,ESE,104,0.0,0.0,66,0.00,,,0.00,0.00,VWS V14.01,2013-05-06 07:24:00,
2013-05-06 03:28:00,56.8,46.0,29.89,ESE,107,0.0,0.0,67,0.00,,,0.00,0.00,VWS V14.01,2013-05-06 07:28:00,
2013-05-06 03:29:00,56.8,46.0,29.89,ESE,107,0.0,1.0,67,0.00,,,0.00,0.00,VWS V14.01,2013-05-06 07:29:00,
2013-05-06 03:33:00,56.8,45.6,29.89,ESE,117,0.0,1.0,66,0.00,,,0.00,0.00,VWS V14.01,2013-05-06 07:33:00,
2013-05-06 03:34:00,56.8,45.6,29.89,ESE,117,0.0,0.0,66,0.00,,,0.00,0.00,VWS V14.01,2013-05-06 07:34:00,
2013-05-06 03:38:00,56.8,46.0,29.89,ESE,117,0.0,0.0,67,0.00,,,0.00,0.00,VWS V14.01,2013-05-06 07:38:00,
2013-05-06 03:39:00,56.8,46.0,29.89,ESE,117,1.0,1.0,67,0.00,,,0.00,0.00,VWS V14.01,2013-05-06 07:39:00,
2013-05-06 03:40:00,56.8,46.0,29.89,ESE,117,0.0,1.0,67,0.00,,,0.00,0.00,VWS V14.01,2013-05-06 07:40:00,
2013-05-06 03:43:00,56.7,46.3,29.89,ESE,117,0.0,0.0,68,0.00,,,0.00,0.00,VWS V14.01,2013-05-06 07:43:00,
2013-05-06 03:44:00,56.6,46.2,29.89,ESE,117,0.0,1.0,68,0.00,,,0.00,0.00,VWS V14.01,2013-05-06 07:44:00,
2013-05-06 03:45:00,56.7,46.3,29.89,ESE,117,0.0,1.0,68,0.00,,,0.00,0.00,VWS V14.01,2013-05-06 07:45:00,
2013-05-06 03:48:00,56.6,46.2,29.89,ESE,117,0.0,0.0,68,0.00,,,0.00,0.00,VWS V14.01,2013-05-06 07:48:00,
2013-05-06 03:49:00,56.5,46.1,29.89,ESE,117,0.0,2.0,68,0.00,,,0.00,0.00,VWS V14.01,2013-05-06 07:49:00,
2013-05-06 03:50:00,56.6,46.2,29.89,ESE,117,0.0,0.0,68,0.00,,,0.00,0.00,VWS V14.01,2013-05-06 07:50:00,
2013-05-06 03:53:00,56.5,46.1,29.89,ESE,117,1.0,1.0,68,0.00,,,0.00,0.00,VWS V14.01,2013-05-06 07:53:00,
2013-05-06 03:54:00,56.5,46.1,29.89,ESE,117,1.0,1.0,68,0.00,,,0.00,0.00,VWS V14.01,2013-05-06 07:54:00,
2013-05-06 03:55:00,56.5,46.1,29.89,ESE,117,0.0,3.0,68,0.00,,,0.00,0.00,VWS V14.01,2013-05-06 07:55:00,
2013-05-06 03:58:00,56.5,46.1,29.89,ESE,117,0.0,0.0,68,0.00,,,0.00,0.00,VWS V14.01,2013-05-06 07:58:00,
2013-05-06 03:59:00,56.5,46.1,29.89,ESE,117,0.0,1.0,68,0.00,,,0.00,0.00,VWS V14.01,2013-05-06 07:59:00,
2013-05-06 04:00:00,56.5,46.1,29.89,ESE,117,0.0,1.0,68,0.00,,,0.00,0.00,VWS V14.01,2013-05-06 08:00:00,
2013-05-06 04:03:00,56.4,46.0,29.89,ESE,117,0.0,2.0,68,0.00,,,0.00,0.00,VWS V14.01,2013-05-06 08:03:00,
2013-05-06 04:04:00,56.4,46.0,29.89,ESE,117,0.0,0.0,68,0.00,,,0.00,0.00,VWS V14.01,2013-05-06 08:04:00,
2013-05-06 04:05:00,56.4,46.0,29.89,ESE,117,1.0,1.0,68,0.00,,,0.00,0.00,VWS V14.01,2013-05-06 08:05:00,
2013-05-06 04:08:00,56.4,46.4,29.89,ESE,117,0.0,2.0,69,0.00,,,0.00,0.00,VWS V14.01,2013-05-06 08:08:00,
2013-05-06 04:09:00,56.4,46.0,29.89,ESE,122,2.0,3.0,68,0.00,,,0.00,0.00,VWS V14.01,2013-05-06 08:09:00,
2013-05-06 04:10:00,56.4,46.0,29.89,ESE,122,0.0,3.0,68,0.00,,,0.00,0.00,VWS V14.01,2013-05-06 08:10:00,
2013-05-06 04:13:00,56.4,46.0,29.89,SE,134,0.0,4.0,68,0.00,,,0.00,0.00,VWS V14.01,2013-05-06 08:13:00,
2013-05-06 04:14:00,56.4,46.0,29.89,SE,134,0.0,1.0,68,0.00,,,0.00,0.00,VWS V14.01,2013-05-06 08:14:00,
2013-05-06 04:15:00,56.5,46.1,29.89,SE,134,2.0,2.0,68,0.00,,,0.00,0.00,VWS V14.01,2013-05-06 08:15:00,
2013-05-06 04:18:00,56.5,46.1,29.89,SE,134,1.0,2.0,68,0.00,,,0.00,0.00,VWS V14.01,2013-05-06 08:18:00,
2013-05-06 04:19:00,56.5,46.1,29.89,SE,134,0.0,0.0,68,0.00,,,0.00,0.00,VWS V14.01,2013-05-06 08:19:00,
2013-05-06 04:20:00,56.5,46.1,29.89,SE,134,1.0,2.0,68,0.00,,,0.00,0.00,VWS V14.01,2013-05-06 08:20:00,
2013-05-06 04:23:00,56.6,46.2,29.89,SE,134,1.0,1.0,68,0.00,,,0.00,0.00,VWS V14.01,2013-05-06 08:23:00,
2013-05-06 04:24:00,56.6,46.2,29.89,SE,134,0.0,1.0,68,0.00,,,0.00,0.00,VWS V14.01,2013-05-06 08:24:00,
2013-05-06 04:25:00,56.6,46.2,29.89,SE,134,1.0,1.0,68,0.00,,,0.00,0.00,VWS V14.01,2013-05-06 08:25:00,
2013-05-06 04:28:00,56.6,46.6,29.89,SE,134,0.0,3.0,69,0.00,,,0.00,0.00,VWS V14.01,2013-05-06 08:28:00,
2013-05-06 04:29:00,56.6,46.6,29.89,SE,134,0.0,1.0,69,0.00,,,0.00,0.00,VWS V14.01,2013-05-06 08:29:00,
2013-05-06 04:30:00,56.6,46.6,29.89,SE,134,0.0,1.0,69,0.00,,,0.00,0.00,VWS V14.01,2013-05-06 08:30:00,
2013-05-06 04:33:00,56.6,46.6,29.89,SE,134,0.0,0.0,69,0.00,,,0.00,0.00,VWS V14.01,2013-05-06 08:33:00,
2013-05-06 04:34:00,56.5,46.5,29.89,SE,134,0.0,0.0,69,0.00,,,0.00,0.00,VWS V14.01,2013-05-06 08:34:00,
2013-05-06 04:35:00,56.5,46.5,29.89,SE,134,1.0,2.0,69,0.00,,,0.00,0.00,VWS V14.01,2013-05-06 08:35:00,
2013-05-06 04:38:00,56.5,46.5,29.89,SE,134,0.0,1.0,69,0.00,,,0.00,0.00,VWS V14.01,2013-05-06 08:38:00,
2013-05-06 04:39:00,56.5,46.5,29.89,SE,134,0.0,0.0,69,0.00,,,0.00,0.00,VWS V14.01,2013-05-06 08:39:00,
2013-05-06 04:40:00,56.5,46.5,29.89,SE,134,0.0,2.0,69,0.00,,,0.00,0.00,VWS V14.01,2013-05-06 08:40:00,
2013-05-06 04:43:00,56.5,46.5,29.89,SE,134,0.0,0.0,69,0.00,,,0.00,0.00,VWS V14.01,2013-05-06 08:43:00,
2013-05-06 04:44:00,56.5,46.5,29.89,SE,134,0.0,1.0,69,0.00,,,0.00,0.00,VWS V14.01,2013-05-06 08:44:00,
2013-05-06 04:45:00,56.5,46.5,29.89,SE,134,0.0,0.0,69,0.00,,,0.00,0.00,VWS V14.01,2013-05-06 08:45:00,
2013-05-06 04:48:00,56.5,46.5,29.89,SE,134,0.0,1.0,69,0.00,,,0.00,0.00,VWS V14.01,2013-05-06 08:48:00,
2013-05-06 04:49:00,56.5,46.1,29.89,SE,134,0.0,0.0,68,0.00,,,0.00,0.00,VWS V14.01,2013-05-06 08:49:00,
2013-05-06 04:50:00,56.6,46.2,29.89,SE,134,0.0,1.0,68,0.00,,,0.00,0.00,VWS V14.01,2013-05-06 08:50:00,
2013-05-06 04:53:00,56.6,46.2,29.89,SE,134,0.0,0.0,68,0.00,,,0.00,0.00,VWS V14.01,2013-05-06 08:53:00,
2013-05-06 04:54:00,56.6,46.2,29.89,SE,134,0.0,0.0,68,0.00,,,0.00,0.00,VWS V14.01,2013-05-06 08:54:00,
2013-05-06 04:55:00,56.6,46.2,29.89,SE,134,0.0,0.0,68,0.00,,,0.00,0.00,VWS V14.01,2013-05-06 08:55:00,
2013-05-06 04:58:00,56.6,46.6,29.89,SE,134,0.0,0.0,69,0.00,,,0.00,0.00,VWS V14.01,2013-05-06 08:58:00,
2013-05-06 04:59:00,56.6,46.6,29.89,SE,134,0.0,0.0,69,0.00,,,0.00,0.00,VWS V14.01,2013-05-06 08:59:00,
2013-05-06 05:00:00,56.6,46.6,29.89,SE,134,0.0,0.0,69,0.00,,,0.00,0.00,VWS V14.01,2013-05-06 09:00:00,
2013-05-06 05:03:00,56.6,46.6,29.89,SE,134,0.0,1.0,69,0.00,,,0.00,0.00,VWS V14.01,2013-05-06 09:03:00,
2013-05-06 05:04:00,56.6,46.6,29.89,SE,134,0.0,0.0,69,0.00,,,0.00,0.00,VWS V14.01,2013-05-06 09:04:00,
2013-05-06 05:05:00,56.6,46.6,29.89,SE,134,1.0,1.0,69,0.00,,,0.00,0.00,VWS V14.01,2013-05-06 09:05:00,
2013-05-06 05:08:00,56.6,46.6,29.89,SE,134,0.0,0.0,69,0.00,,,0.00,0.00,VWS V14.01,2013-05-06 09:08:00,
2013-05-06 05:09:00,56.5,46.5,29.89,SE,134,0.0,0.0,69,0.00,,,0.00,0.00,VWS V14.01,2013-05-06 09:09:00,
2013-05-06 05:10:00,56.6,46.6,29.89,SE,134,0.0,0.0,69,0.00,,,0.00,0.00,VWS V14.01,2013-05-06 09:10:00,
2013-05-06 05:11:00,56.6,46.6,29.89,SE,134,0.0,0.0,69,0.00,,,0.00,0.00,VWS V14.01,2013-05-06 09:11:00,
2013-05-06 05:14:00,56.5,46.5,29.89,SE,134,0.0,1.0,69,0.00,,,0.00,0.00,VWS V14.01,2013-05-06 09:14:00,
2013-05-06 05:15:00,56.5,46.8,29.89,SE,134,0.0,0.0,70,0.00,,,0.00,0.00,VWS V14.01,2013-05-06 09:15:00,
2013-05-06 05:16:00,56.5,46.5,29.89,SE,134,0.0,0.0,69,0.00,,,0.00,0.00,VWS V14.01,2013-05-06 09:16:00,
2013-05-06 05:19:00,56.4,46.8,29.89,SE,134,0.0,0.0,70,0.00,,,0.00,0.00,VWS V14.01,2013-05-06 09:19:00,
2013-05-06 05:20:00,56.4,47.1,29.89,SE,134,0.0,0.0,71,0.00,,,0.00,0.00,VWS V14.01,2013-05-06 09:20:00,
2013-05-06 05:21:00,56.4,47.5,29.89,SE,134,0.0,0.0,72,0.00,,,0.00,0.00,VWS V14.01,2013-05-06 09:21:00,
2013-05-06 05:23:00,56.4,47.1,29.89,SE,134,0.0,0.0,71,0.00,,,0.00,0.00,VWS V14.01,2013-05-06 09:23:00,
2013-05-06 05:24:00,56.4,47.1,29.89,SE,134,0.0,0.0,71,0.00,,,0.00,0.00,VWS V14.01,2013-05-06 09:24:00,
2013-05-06 05:25:00,56.4,47.1,29.89,SE,134,0.0,0.0,71,0.00,,,0.00,0.00,VWS V14.01,2013-05-06 09:25:00,
2013-05-06 05:26:00,56.3,47.0,29.89,SE,134,0.0,0.0,71,0.00,,,0.00,0.00,VWS V14.01,2013-05-06 09:26:00,
2013-05-06 05:28:00,56.3,47.0,29.89,SE,134,0.0,0.0,71,0.00,,,0.00,0.00,VWS V14.01,2013-05-06 09:28:00,
2013-05-06 05:29:00,56.3,47.4,29.89,SE,134,0.0,0.0,72,0.00,,,0.00,0.00,VWS V14.01,2013-05-06 09:29:00,
2013-05-06 05:30:00,56.3,47.4,29.89,SE,134,0.0,0.0,72,0.00,,,0.00,0.00,VWS V14.01,2013-05-06 09:30:00,
2013-05-06 05:31:00,56.2,46.9,29.89,SE,134,0.0,0.0,71,0.00,,,0.00,0.00,VWS V14.01,2013-05-06 09:31:00,
2013-05-06 05:33:00,56.2,47.3,29.89,SE,134,0.0,0.0,72,0.00,,,0.00,0.00,VWS V14.01,2013-05-06 09:33:00,
2013-05-06 05:34:00,56.1,47.2,29.89,SE,134,0.0,0.0,72,0.00,,,0.00,0.00,VWS V14.01,2013-05-06 09:34:00,
2013-05-06 05:35:00,56.1,47.2,29.89,SE,134,0.0,0.0,72,0.00,,,0.00,0.00,VWS V14.01,2013-05-06 09:35:00,
2013-05-06 05:36:00,56.1,47.2,29.89,SE,134,0.0,0.0,72,0.00,,,0.00,0.00,VWS V14.01,2013-05-06 09:36:00,
2013-05-06 05:38:00,56.0,47.1,29.89,SE,134,0.0,0.0,72,0.00,,,0.00,0.00,VWS V14.01,2013-05-06 09:38:00,
2013-05-06 05:39:00,56.0,47.1,29.90,SE,134,0.0,0.0,72,0.00,,,0.00,0.00,VWS V14.01,2013-05-06 09:39:00,
2013-05-06 05:40:00,56.0,47.1,29.89,SE,134,0.0,0.0,72,0.00,,,0.00,0.00,VWS V14.01,2013-05-06 09:40:00,
2013-05-06 05:41:00,56.0,47.1,29.89,SE,134,0.0,0.0,72,0.00,,,0.00,0.00,VWS V14.01,2013-05-06 09:41:00,
2013-05-06 05:44:00,56.0,47.1,29.90,SE,134,0.0,0.0,72,0.00,,,0.00,0.00,VWS V14.01,2013-05-06 09:44:00,
2013-05-06 05:45:00,56.0,47.1,29.89,SE,134,0.0,0.0,72,0.00,,,0.00,0.00,VWS V14.01,2013-05-06 09:45:00,
2013-05-06 05:46:00,56.0,47.1,29.89,SE,134,0.0,0.0,72,0.00,,,0.00,0.00,VWS V14.01,2013-05-06 09:46:00,
2013-05-06 05:49:00,56.0,47.1,29.89,SE,134,0.0,1.0,72,0.00,,,0.00,0.00,VWS V14.01,2013-05-06 09:49:00,
2013-05-06 05:50:00,56.0,47.1,29.90,SE,134,0.0,0.0,72,0.00,,,0.00,0.00,VWS V14.01,2013-05-06 09:50:00,
2013-05-06 05:51:00,56.0,47.1,29.90,SE,134,0.0,0.0,72,0.00,,,0.00,0.00,VWS V14.01,2013-05-06 09:51:00,
2013-05-06 05:54:00,56.0,47.1,29.90,SE,134,0.0,0.0,72,0.00,,,0.00,0.00,VWS V14.01,2013-05-06 09:54:00,
2013-05-06 05:55:00,55.9,47.0,29.90,SE,134,0.0,0.0,72,0.00,,,0.00,0.00,VWS V14.01,2013-05-06 09:55:00,
2013-05-06 05:56:00,55.9,47.0,29.90,SE,134,0.0,0.0,72,0.00,,,0.00,0.00,VWS V14.01,2013-05-06 09:56:00,
2013-05-06 05:59:00,55.9,47.0,29.90,SE,124,0.0,1.0,72,0.00,,,0.00,0.00,VWS V14.01,2013-05-06 09:59:00,
2013-05-06 06:00:00,55.9,47.0,29.90,SE,124,0.0,1.0,72,0.00,,,0.00,0.00,VWS V14.01,2013-05-06 10:00:00,
2013-05-06 06:01:00,55.9,47.0,29.90,SE,124,0.0,0.0,72,0.00,,,0.00,0.00,VWS V14.01,2013-05-06 10:01:00,
2013-05-06 06:04:00,55.9,47.0,29.90,SE,124,0.0,0.0,72,0.00,,,0.00,0.00,VWS V14.01,2013-05-06 10:04:00,
2013-05-06 06:05:00,55.9,47.0,29.90,SE,124,0.0,1.0,72,0.00,,,0.00,0.00,VWS V14.01,2013-05-06 10:05:00,
2013-05-06 06:06:00,55.9,47.0,29.90,SE,124,0.0,1.0,72,0.00,,,0.00,0.00,VWS V14.01,2013-05-06 10:06:00,
2013-05-06 06:09:00,55.9,47.0,29.90,SE,124,0.0,1.0,72,0.00,,,0.00,0.00,VWS V14.01,2013-05-06 10:09:00,
2013-05-06 06:10:00,55.9,47.0,29.90,SE,124,0.0,0.0,72,0.00,,,0.00,0.00,VWS V14.01,2013-05-06 10:10:00,
2013-05-06 06:11:00,55.9,47.0,29.90,SE,124,0.0,2.0,72,0.00,,,0.00,0.00,VWS V14.01,2013-05-06 10:11:00,
2013-05-06 06:14:00,55.9,47.0,29.90,SE,124,0.0,0.0,72,0.00,,,0.00,0.00,VWS V14.01,2013-05-06 10:14:00,
2013-05-06 06:15:00,55.9,47.0,29.90,SE,124,0.0,1.0,72,0.00,,,0.00,0.00,VWS V14.01,2013-05-06 10:15:00,
2013-05-06 06:16:00,55.9,47.0,29.90,SSW,204,0.0,0.0,72,0.00,,,0.00,0.00,VWS V14.01,2013-05-06 10:16:00,
2013-05-06 06:17:00,55.9,47.0,29.90,SSW,198,0.0,0.0,72,0.00,,,0.00,0.00,VWS V14.01,2013-05-06 10:17:00,
2013-05-06 06:19:00,55.9,47.0,29.90,South,173,2.0,4.0,72,0.00,,,0.00,0.00,VWS V14.01,2013-05-06 10:19:00,
2013-05-06 06:20:00,55.9,47.0,29.90,South,173,0.0,0.0,72,0.00,,,0.00,0.00,VWS V14.01,2013-05-06 10:20:00,
2013-05-06 06:21:00,55.9,47.0,29.90,South,172,0.0,1.0,72,0.00,,,0.00,0.00,VWS V14.01,2013-05-06 10:21:00,
2013-05-06 06:22:00,55.9,47.0,29.90,South,172,0.0,0.0,72,0.00,,,0.00,0.00,VWS V14.01,2013-05-06 10:22:00,
2013-05-06 06:24:00,55.9,47.0,29.90,South,169,0.0,0.0,72,0.00,,,0.00,0.00,VWS V14.01,2013-05-06 10:24:00,
2013-05-06 06:25:00,55.9,47.0,29.90,South,172,0.0,0.0,72,0.00,,,0.00,0.00,VWS V14.01,2013-05-06 10:25:00,
2013-05-06 06:26:00,55.8,46.9,29.90,South,171,0.0,0.0,72,0.00,,,0.00,0.00,VWS V14.01,2013-05-06 10:26:00,
2013-05-06 06:27:00,55.8,47.3,29.90,South,171,0.0,0.0,73,0.00,,,0.00,0.00,VWS V14.01,2013-05-06 10:27:00,
2013-05-06 06:29:00,55.8,47.3,29.90,SE,140,0.0,0.0,73,0.00,,,0.00,0.00,VWS V14.01,2013-05-06 10:29:00,
2013-05-06 06:30:00,55.8,47.3,29.90,SE,140,0.0,0.0,73,0.00,,,0.00,0.00,VWS V14.01,2013-05-06 10:30:00,
2013-05-06 06:31:00,55.8,46.9,29.90,SE,140,0.0,0.0,72,0.00,,,0.00,0.00,VWS V14.01,2013-05-06 10:31:00,
2013-05-06 06:32:00,55.8,46.9,29.90,SE,140,0.0,0.0,72,0.00,,,0.00,0.00,VWS V14.01,2013-05-06 10:32:00,
2013-05-06 06:34:00,55.8,47.3,29.90,SE,140,0.0,0.0,73,0.00,,,0.00,0.00,VWS V14.01,2013-05-06 10:34:00,
2013-05-06 06:35:00,55.7,47.2,29.90,ENE,66,0.0,1.0,73,0.00,,,0.00,0.00,VWS V14.01,2013-05-06 10:35:00,
2013-05-06 06:36:00,55.7,47.5,29.90,East,90,1.0,1.0,74,0.00,,,0.00,0.00,VWS V14.01,2013-05-06 10:36:00,
2013-05-06 06:37:00,55.7,47.2,29.90,East,90,0.0,0.0,73,0.00,,,0.00,0.00,VWS V14.01,2013-05-06 10:37:00,
2013-05-06 06:40:00,55.7,47.5,29.90,East,93,0.0,1.0,74,0.00,,,0.00,0.00,VWS V14.01,2013-05-06 10:40:00,
2013-05-06 06:41:00,55.7,47.5,29.90,East,93,0.0,1.0,74,0.00,,,0.00,0.00,VWS V14.01,2013-05-06 10:41:00,
2013-05-06 06:42:00,55.6,47.5,29.90,East,93,0.0,0.0,74,0.00,,,0.00,0.00,VWS V14.01,2013-05-06 10:42:00,
2013-05-06 06:45:00,55.6,47.5,29.90,SE,125,0.0,0.0,74,0.00,,,0.00,0.00,VWS V14.01,2013-05-06 10:45:00,
2013-05-06 06:46:00,55.5,47.4,29.90,SE,125,0.0,1.0,74,0.00,,,0.00,0.00,VWS V14.01,2013-05-06 10:46:00,
2013-05-06 06:47:00,55.5,47.7,29.90,SE,125,0.0,0.0,75,0.00,,,0.00,0.00,VWS V14.01,2013-05-06 10:47:00,
2013-05-06 06:50:00,55.4,47.6,29.90,ESE,123,0.0,1.0,75,0.00,,,0.00,0.00,VWS V14.01,2013-05-06 10:50:00,
2013-05-06 06:51:00,55.4,47.6,29.90,ESE,123,2.0,2.0,75,0.00,,,0.00,0.00,VWS V14.01,2013-05-06 10:51:00,
2013-05-06 06:52:00,55.3,47.9,29.91,ESE,123,0.0,0.0,76,0.00,,,0.00,0.00,VWS V14.01,2013-05-06 10:52:00,
2013-05-06 06:55:00,55.2,47.8,29.91,SE,126,1.0,1.0,76,0.00,,,0.00,0.00,VWS V14.01,2013-05-06 10:55:00,
2013-05-06 06:56:00,55.2,47.8,29.91,SE,126,2.0,2.0,76,0.00,,,0.00,0.00,VWS V14.01,2013-05-06 10:56:00,
2013-05-06 06:57:00,55.1,47.7,29.91,SE,126,0.0,0.0,76,0.00,,,0.00,0.00,VWS V14.01,2013-05-06 10:57:00,
2013-05-06 07:00:00,55.0,47.6,29.91,SE,126,0.0,2.0,76,0.00,,,0.00,0.00,VWS V14.01,2013-05-06 11:00:00,
2013-05-06 07:01:00,55.0,47.6,29.91,SE,126,0.0,0.0,76,0.00,,,0.00,0.00,VWS V14.01,2013-05-06 11:01:00,
2013-05-06 07:02:00,55.0,47.6,29.91,SE,126,2.0,2.0,76,0.00,,,0.00,0.00,VWS V14.01,2013-05-06 11:02:00,
2013-05-06 07:05:00,55.0,47.6,29.91,ESE,123,0.0,1.0,76,0.00,,,0.00,0.00,VWS V14.01,2013-05-06 11:05:00,
2013-05-06 07:06:00,55.0,47.6,29.91,ESE,123,0.0,0.0,76,0.00,,,0.00,0.00,VWS V14.01,2013-05-06 11:06:00,
2013-05-06 07:07:00,55.0,47.6,29.91,East,99,0.0,1.0,76,0.00,,,0.00,0.00,VWS V14.01,2013-05-06 11:07:00,
2013-05-06 07:10:00,55.0,47.6,29.91,SE,131,0.0,3.0,76,0.00,,,0.00,0.00,VWS V14.01,2013-05-06 11:10:00,
2013-05-06 07:11:00,55.0,47.6,29.91,SE,131,0.0,1.0,76,0.00,,,0.00,0.00,VWS V14.01,2013-05-06 11:11:00,
2013-05-06 07:12:00,55.0,47.6,29.91,SE,131,0.0,0.0,76,0.00,,,0.00,0.00,VWS V14.01,2013-05-06 11:12:00,
2013-05-06 07:16:00,55.0,47.6,29.91,SE,134,0.0,1.0,76,0.00,,,0.00,0.00,VWS V14.01,2013-05-06 11:16:00,
2013-05-06 07:17:00,55.0,47.6,29.91,SE,133,0.0,1.0,76,0.00,,,0.00,0.00,VWS V14.01,2013-05-06 11:17:00,
2013-05-06 07:21:00,55.0,47.2,29.91,ESE,108,1.0,1.0,75,0.00,,,0.00,0.00,VWS V14.01,2013-05-06 11:21:00,
2013-05-06 07:22:00,55.1,47.7,29.91,ESE,108,0.0,1.0,76,0.00,,,0.00,0.00,VWS V14.01,2013-05-06 11:22:00,
2013-05-06 07:26:00,55.1,47.7,29.91,ENE,65,0.0,2.0,76,0.00,,,0.00,0.00,VWS V14.01,2013-05-06 11:26:00,
2013-05-06 07:27:00,55.1,47.3,29.91,ENE,65,0.0,2.0,75,0.00,,,0.00,0.00,VWS V14.01,2013-05-06 11:27:00,
2013-05-06 07:31:00,55.2,47.8,29.91,SE,132,0.0,1.0,76,0.00,,,0.00,0.00,VWS V14.01,2013-05-06 11:31:00,
2013-05-06 07:32:00,55.2,47.8,29.92,SE,132,0.0,0.0,76,0.00,,,0.00,0.00,VWS V14.01,2013-05-06 11:32:00,
2013-05-06 07:36:00,55.3,47.5,29.92,SE,133,0.0,1.0,75,0.00,,,0.00,0.00,VWS V14.01,2013-05-06 11:36:00,
2013-05-06 07:37:00,55.3,47.5,29.92,SE,133,0.0,1.0,75,0.00,,,0.00,0.00,VWS V14.01,2013-05-06 11:37:00,
2013-05-06 07:41:00,55.4,47.6,29.92,SE,134,1.0,2.0,75,0.00,,,0.00,0.00,VWS V14.01,2013-05-06 11:41:00,
2013-05-06 07:42:00,55.5,47.7,29.92,SE,134,1.0,2.0,75,0.00,,,0.00,0.00,VWS V14.01,2013-05-06 11:42:00,
2013-05-06 07:46:00,55.6,47.8,29.92,SE,134,3.0,3.0,75,0.00,,,0.00,0.00,VWS V14.01,2013-05-06 11:46:00,
2013-05-06 07:47:00,55.6,47.8,29.92,SE,134,0.0,1.0,75,0.00,,,0.00,0.00,VWS V14.01,2013-05-06 11:47:00,
2013-05-06 07:51:00,55.7,47.9,29.92,SE,133,0.0,1.0,75,0.00,,,0.00,0.00,VWS V14.01,2013-05-06 11:51:00,
2013-05-06 07:52:00,55.7,47.9,29.92,SE,133,1.0,1.0,75,0.00,,,0.00,0.00,VWS V14.01,2013-05-06 11:52:00,
2013-05-06 07:56:00,55.7,47.5,29.92,SE,133,0.0,1.0,74,0.00,,,0.00,0.00,VWS V14.01,2013-05-06 11:56:00,
2013-05-06 07:57:00,55.8,47.7,29.92,SE,133,2.0,2.0,74,0.00,,,0.00,0.00,VWS V14.01,2013-05-06 11:57:00,
2013-05-06 08:01:00,55.8,47.7,29.92,SE,133,0.0,1.0,74,0.00,,,0.00,0.00,VWS V14.01,2013-05-06 12:01:00,
2013-05-06 08:02:00,55.8,47.7,29.93,SE,133,1.0,2.0,74,0.00,,,0.00,0.00,VWS V14.01,2013-05-06 12:02:00,
2013-05-06 08:06:00,55.9,47.7,29.93,SE,130,0.0,1.0,74,0.00,,,0.00,0.00,VWS V14.01,2013-05-06 12:06:00,
2013-05-06 08:07:00,55.9,47.7,29.93,SE,130,0.0,2.0,74,0.00,,,0.00,0.00,VWS V14.01,2013-05-06 12:07:00,
2013-05-06 08:11:00,56.0,47.5,29.93,ESE,108,0.0,1.0,73,0.00,,,0.00,0.00,VWS V14.01,2013-05-06 12:11:00,
2013-05-06 08:12:00,56.0,47.8,29.93,ESE,110,4.0,4.0,74,0.00,,,0.00,0.00,VWS V14.01,2013-05-06 12:12:00,
2013-05-06 08:13:00,56.0,47.8,29.93,ESE,111,1.0,1.0,74,0.00,,,0.00,0.00,VWS V14.01,2013-05-06 12:13:00,
2013-05-06 08:16:00,56.1,47.9,29.93,ESE,117,0.0,3.0,74,0.00,,,0.00,0.00,VWS V14.01,2013-05-06 12:16:00,
2013-05-06 08:17:00,56.1,47.6,29.93,ESE,117,0.0,0.0,73,0.00,,,0.00,0.00,VWS V14.01,2013-05-06 12:17:00,
2013-05-06 08:18:00,56.1,47.9,29.93,ESE,117,1.0,1.0,74,0.00,,,0.00,0.00,VWS V14.01,2013-05-06 12:18:00,
2013-05-06 08:21:00,56.3,47.8,29.93,SE,137,1.0,6.0,73,0.00,,,0.00,0.00,VWS V14.01,2013-05-06 12:21:00,
2013-05-06 08:22:00,56.3,47.8,29.93,SE,137,0.0,6.0,73,0.00,,,0.00,0.00,VWS V14.01,2013-05-06 12:22:00,
2013-05-06 08:23:00,56.3,47.8,29.93,SE,138,0.0,1.0,73,0.00,,,0.00,0.00,VWS V14.01,2013-05-06 12:23:00,
2013-05-06 08:26:00,56.4,47.9,29.93,SE,141,0.0,3.0,73,0.00,,,0.00,0.00,VWS V14.01,2013-05-06 12:26:00,
2013-05-06 08:27:00,56.4,47.9,29.93,SE,141,1.0,1.0,73,0.00,,,0.00,0.00,VWS V14.01,2013-05-06 12:27:00,
2013-05-06 08:28:00,56.4,47.9,29.93,SE,141,0.0,2.0,73,0.00,,,0.00,0.00,VWS V14.01,2013-05-06 12:28:00,
2013-05-06 08:31:00,56.5,47.6,29.94,SE,139,2.0,3.0,72,0.00,,,0.00,0.00,VWS V14.01,2013-05-06 12:31:00,
2013-05-06 08:32:00,56.5,47.6,29.93,SE,139,1.0,1.0,72,0.00,,,0.00,0.00,VWS V14.01,2013-05-06 12:32:00,
2013-05-06 08:33:00,56.6,48.1,29.93,SE,139,3.0,3.0,73,0.00,,,0.00,0.00,VWS V14.01,2013-05-06 12:33:00,
2013-05-06 08:36:00,56.7,48.2,29.93,ESE,103,2.0,3.0,73,0.00,,,0.00,0.00,VWS V14.01,2013-05-06 12:36:00,
2013-05-06 08:37:00,56.7,48.2,29.93,ESE,103,1.0,2.0,73,0.00,,,0.00,0.00,VWS V14.01,2013-05-06 12:37:00,
2013-05-06 08:38:00,56.7,48.2,29.94,ESE,103,0.0,0.0,73,0.00,,,0.00,0.00,VWS V14.01,2013-05-06 12:38:00,
2013-05-06 08:41:00,56.8,48.2,29.94,ESE,103,0.0,1.0,73,0.00,,,0.00,0.00,VWS V14.01,2013-05-06 12:41:00,
2013-05-06 08:42:00,56.8,48.2,29.94,ESE,103,0.0,0.0,73,0.00,,,0.00,0.00,VWS V14.01,2013-05-06 12:42:00,
2013-05-06 08:43:00,56.8,48.2,29.94,ESE,103,1.0,1.0,73,0.00,,,0.00,0.00,VWS V14.01,2013-05-06 12:43:00,
2013-05-06 08:46:00,56.9,48.3,29.94,South,184,1.0,2.0,73,0.00,,,0.00,0.00,VWS V14.01,2013-05-06 12:46:00,
2013-05-06 08:47:00,56.9,48.3,29.94,South,184,0.0,2.0,73,0.00,,,0.00,0.00,VWS V14.01,2013-05-06 12:47:00,
2013-05-06 08:48:00,57.0,48.4,29.94,South,184,0.0,0.0,73,0.00,,,0.00,0.00,VWS V14.01,2013-05-06 12:48:00,
2013-05-06 08:51:00,57.1,48.5,29.94,SE,135,1.0,1.0,73,0.00,,,0.00,0.00,VWS V14.01,2013-05-06 12:51:00,
2013-05-06 08:52:00,57.1,48.5,29.93,SE,135,1.0,1.0,73,0.00,,,0.00,0.00,VWS V14.01,2013-05-06 12:52:00,
2013-05-06 08:53:00,57.2,48.6,29.94,SE,138,1.0,2.0,73,0.00,,,0.00,0.00,VWS V14.01,2013-05-06 12:53:00,
2013-05-06 08:57:00,57.4,48.5,29.94,SE,136,0.0,0.0,72,0.00,,,0.00,0.00,VWS V14.01,2013-05-06 12:57:00,
2013-05-06 08:58:00,57.4,48.5,29.94,SE,136,0.0,0.0,72,0.00,,,0.00,0.00,VWS V14.01,2013-05-06 12:58:00,
2013-05-06 09:02:00,57.6,48.3,29.94,SE,137,5.0,5.0,71,0.00,,,0.00,0.00,VWS V14.01,2013-05-06 13:02:00,
2013-05-06 09:03:00,57.7,48.8,29.94,ESE,119,3.0,3.0,72,0.00,,,0.00,0.00,VWS V14.01,2013-05-06 13:03:00,
2013-05-06 09:07:00,58.0,48.7,29.94,SE,137,5.0,6.0,71,0.00,,,0.00,0.00,VWS V14.01,2013-05-06 13:07:00,
2013-05-06 09:08:00,58.1,48.8,29.94,SE,137,0.0,1.0,71,0.00,,,0.00,0.00,VWS V14.01,2013-05-06 13:08:00,
2013-05-06 09:12:00,58.8,49.0,29.94,SE,129,0.0,1.0,70,0.00,,,0.00,0.00,VWS V14.01,2013-05-06 13:12:00,
2013-05-06 09:13:00,59.1,49.7,29.94,SE,138,0.0,2.0,71,0.00,,,0.00,0.00,VWS V14.01,2013-05-06 13:13:00,
2013-05-06 09:17:00,60.1,49.9,29.94,SSE,153,6.0,6.0,69,0.00,,,0.00,0.00,VWS V14.01,2013-05-06 13:17:00,
2013-05-06 09:18:00,60.3,49.7,29.94,SE,128,4.0,6.0,68,0.00,,,0.00,0.00,VWS V14.01,2013-05-06 13:18:00,
2013-05-06 09:22:00,60.9,49.9,29.94,SE,124,3.0,3.0,67,0.00,,,0.00,0.00,VWS V14.01,2013-05-06 13:22:00,
2013-05-06 09:23:00,60.9,49.9,29.94,SE,146,5.0,8.0,67,0.00,,,0.00,0.00,VWS V14.01,2013-05-06 13:23:00,
2013-05-06 09:27:00,61.4,50.4,29.94,ESE,121,3.0,3.0,67,0.00,,,0.00,0.00,VWS V14.01,2013-05-06 13:27:00,
2013-05-06 09:28:00,61.4,50.0,29.94,SE,126,3.0,3.0,66,0.00,,,0.00,0.00,VWS V14.01,2013-05-06 13:28:00,
2013-05-06 09:32:00,61.3,49.0,29.94,SE,136,3.0,3.0,64,0.00,,,0.00,0.00,VWS V14.01,2013-05-06 13:32:00,
2013-05-06 09:33:00,61.3,49.5,29.94,SE,139,1.0,3.0,65,0.00,,,0.00,0.00,VWS V14.01,2013-05-06 13:33:00,
2013-05-06 09:37:00,61.2,49.8,29.94,SE,142,1.0,3.0,66,0.00,,,0.00,0.00,VWS V14.01,2013-05-06 13:37:00,
2013-05-06 09:38:00,61.3,49.9,29.94,SE,142,0.0,0.0,66,0.00,,,0.00,0.00,VWS V14.01,2013-05-06 13:38:00,
2013-05-06 09:42:00,61.6,50.1,29.94,SE,128,2.0,3.0,66,0.00,,,0.00,0.00,VWS V14.01,2013-05-06 13:42:00,
2013-05-06 09:43:00,61.7,50.2,29.94,SE,128,0.0,1.0,66,0.00,,,0.00,0.00,VWS V14.01,2013-05-06 13:43:00,
2013-05-06 09:47:00,62.7,50.8,29.94,SE,126,3.0,3.0,65,0.00,,,0.00,0.00,VWS V14.01,2013-05-06 13:47:00,
2013-05-06 09:48:00,62.8,50.9,29.94,SE,126,2.0,3.0,65,0.00,,,0.00,0.00,VWS V14.01,2013-05-06 13:48:00,
2013-05-06 09:52:00,63.6,50.8,29.94,SE,131,5.0,6.0,63,0.00,,,0.00,0.00,VWS V14.01,2013-05-06 13:52:00,
2013-05-06 09:53:00,63.7,50.9,29.94,SE,128,3.0,4.0,63,0.00,,,0.00,0.00,VWS V14.01,2013-05-06 13:53:00,
2013-05-06 09:57:00,64.1,51.7,29.94,ESE,123,2.0,4.0,64,0.00,,,0.00,0.00,VWS V14.01,2013-05-06 13:57:00,
2013-05-06 09:58:00,64.2,51.8,29.94,ESE,123,2.0,2.0,64,0.00,,,0.00,0.00,VWS V14.01,2013-05-06 13:58:00,
2013-05-06 10:02:00,64.7,51.8,29.94,SE,128,4.0,7.0,63,0.00,,,0.00,0.00,VWS V14.01,2013-05-06 14:02:00,
2013-05-06 10:03:00,64.7,51.8,29.94,SE,138,4.0,5.0,63,0.00,,,0.00,0.00,VWS V14.01,2013-05-06 14:03:00,
2013-05-06 10:04:00,64.7,51.4,29.94,SSE,159,8.0,10.0,62,0.00,,,0.00,0.00,VWS V14.01,2013-05-06 14:04:00,
2013-05-06 10:07:00,64.9,52.0,29.94,SE,141,3.0,7.0,63,0.00,,,0.00,0.00,VWS V14.01,2013-05-06 14:07:00,
2013-05-06 10:08:00,64.9,51.6,29.94,SSE,159,3.0,4.0,62,0.00,,,0.00,0.00,VWS V14.01,2013-05-06 14:08:00,
2013-05-06 10:12:00,65.2,51.9,29.94,SE,134,4.0,9.0,62,0.00,,,0.00,0.00,VWS V14.01,2013-05-06 14:12:00,
2013-05-06 10:13:00,65.2,51.4,29.94,SE,134,3.0,3.0,61,0.00,,,0.00,0.00,VWS V14.01,2013-05-06 14:13:00,
2013-05-06 10:14:00,65.3,51.5,29.94,SE,131,3.0,5.0,61,0.00,,,0.00,0.00,VWS V14.01,2013-05-06 14:14:00,
2013-05-06 10:17:00,65.6,51.8,29.94,SSE,158,1.0,6.0,61,0.00,,,0.00,0.00,VWS V14.01,2013-05-06 14:17:00,
2013-05-06 10:18:00,65.7,51.5,29.94,SSE,162,1.0,3.0,60,0.00,,,0.00,0.00,VWS V14.01,2013-05-06 14:18:00,
2013-05-06 10:19:00,65.7,51.5,29.94,SSE,162,2.0,3.0,60,0.00,,,0.00,0.00,VWS V14.01,2013-05-06 14:19:00,
2013-05-06 10:22:00,66.0,52.2,29.94,SE,141,5.0,5.0,61,0.00,,,0.00,0.00,VWS V14.01,2013-05-06 14:22:00,
2013-05-06 10:23:00,66.1,51.8,29.94,SE,145,1.0,5.0,60,0.00,,,0.00,0.00,VWS V14.01,2013-05-06 14:23:00,
2013-05-06 10:24:00,66.2,52.4,29.94,SE,140,1.0,1.0,61,0.00,,,0.00,0.00,VWS V14.01,2013-05-06 14:24:00,
2013-05-06 10:28:00,66.4,51.7,29.94,SE,146,7.0,11.0,59,0.00,,,0.00,0.00,VWS V14.01,2013-05-06 14:28:00,
2013-05-06 10:29:00,66.2,51.0,29.94,SE,142,3.0,3.0,58,0.00,,,0.00,0.00,VWS V14.01,2013-05-06 14:29:00,
2013-05-06 10:33:00,65.6,50.9,29.94,SE,130,1.0,6.0,59,0.00,,,0.00,0.00,VWS V14.01,2013-05-06 14:33:00,
2013-05-06 10:34:00,65.6,51.4,29.94,SE,124,6.0,7.0,60,0.00,,,0.00,0.00,VWS V14.01,2013-05-06 14:34:00,
2013-05-06 10:38:00,65.6,51.8,29.94,SE,143,6.0,6.0,61,0.00,,,0.00,0.00,VWS V14.01,2013-05-06 14:38:00,
2013-05-06 10:39:00,65.7,51.5,29.94,ESE,120,4.0,4.0,60,0.00,,,0.00,0.00,VWS V14.01,2013-05-06 14:39:00,
2013-05-06 10:43:00,66.1,52.3,29.94,SE,139,1.0,7.0,61,0.00,,,0.00,0.00,VWS V14.01,2013-05-06 14:43:00,
2013-05-06 10:44:00,66.1,51.8,29.94,SE,130,4.0,8.0,60,0.00,,,0.00,0.00,VWS V14.01,2013-05-06 14:44:00,
2013-05-06 10:48:00,66.1,51.8,29.94,SE,135,5.0,7.0,60,0.00,,,0.00,0.00,VWS V14.01,2013-05-06 14:48:00,
2013-05-06 10:49:00,66.1,51.4,29.94,SE,135,3.0,6.0,59,0.00,,,0.00,0.00,VWS V14.01,2013-05-06 14:49:00,
2013-05-06 10:53:00,66.3,52.0,29.94,ESE,115,3.0,6.0,60,0.00,,,0.00,0.00,VWS V14.01,2013-05-06 14:53:00,
2013-05-06 10:54:00,66.3,52.0,29.94,SE,138,4.0,6.0,60,0.00,,,0.00,0.00,VWS V14.01,2013-05-06 14:54:00,
2013-05-06 10:58:00,66.4,52.1,29.94,SE,140,0.0,3.0,60,0.00,,,0.00,0.00,VWS V14.01,2013-05-06 14:58:00,
2013-05-06 10:59:00,66.4,52.6,29.94,East,94,5.0,5.0,61,0.00,,,0.00,0.00,VWS V14.01,2013-05-06 14:59:00,
2013-05-06 11:03:00,66.6,51.8,29.94,SE,132,4.0,7.0,59,0.00,,,0.00,0.00,VWS V14.01,2013-05-06 15:03:00,
2013-05-06 11:04:00,66.6,52.3,29.94,SE,134,4.0,5.0,60,0.00,,,0.00,0.00,VWS V14.01,2013-05-06 15:04:00,
2013-05-06 11:08:00,66.8,52.0,29.94,SE,138,3.0,4.0,59,0.00,,,0.00,0.00,VWS V14.01,2013-05-06 15:08:00,
2013-05-06 11:09:00,66.9,52.6,29.94,SSW,194,2.0,5.0,60,0.00,,,0.00,0.00,VWS V14.01,2013-05-06 15:09:00,
2013-05-06 11:13:00,67.1,51.8,29.94,SSE,147,0.0,5.0,58,0.00,,,0.00,0.00,VWS V14.01,2013-05-06 15:13:00,
2013-05-06 11:14:00,67.2,51.9,29.94,South,170,1.0,4.0,58,0.00,,,0.00,0.00,VWS V14.01,2013-05-06 15:14:00,
2013-05-06 11:18:00,67.2,52.4,29.95,SE,137,4.0,8.0,59,0.00,,,0.00,0.00,VWS V14.01,2013-05-06 15:18:00,
2013-05-06 11:19:00,67.2,52.4,29.95,SE,135,4.0,9.0,59,0.00,,,0.00,0.00,VWS V14.01,2013-05-06 15:19:00,
2013-05-06 11:23:00,67.1,53.2,29.95,SSE,163,2.0,6.0,61,0.00,,,0.00,0.00,VWS V14.01,2013-05-06 15:23:00,
2013-05-06 11:24:00,67.1,53.2,29.95,SSE,161,3.0,3.0,61,0.00,,,0.00,0.00,VWS V14.01,2013-05-06 15:24:00,
2013-05-06 11:28:00,67.5,53.1,29.94,SE,140,4.0,4.0,60,0.00,,,0.00,0.00,VWS V14.01,2013-05-06 15:28:00,
2013-05-06 11:29:00,67.5,53.1,29.94,SE,138,1.0,3.0,60,0.00,,,0.00,0.00,VWS V14.01,2013-05-06 15:29:00,
2013-05-06 11:30:00,67.6,53.2,29.94,SE,137,0.0,0.0,60,0.00,,,0.00,0.00,VWS V14.01,2013-05-06 15:30:00,
2013-05-06 11:33:00,67.9,53.1,29.94,SE,143,1.0,7.0,59,0.00,,,0.00,0.00,VWS V14.01,2013-05-06 15:33:00,
2013-05-06 11:34:00,68.0,53.2,29.95,SE,143,3.0,4.0,59,0.00,,,0.00,0.00,VWS V14.01,2013-05-06 15:34:00,
2013-05-06 11:35:00,68.0,53.2,29.94,SE,126,1.0,1.0,59,0.00,,,0.00,0.00,VWS V14.01,2013-05-06 15:35:00,
2013-05-06 11:38:00,68.3,53.4,29.94,ESE,111,2.0,4.0,59,0.00,,,0.00,0.00,VWS V14.01,2013-05-06 15:38:00,
2013-05-06 11:39:00,68.4,54.4,29.94,East,93,3.0,3.0,61,0.00,,,0.00,0.00,VWS V14.01,2013-05-06 15:39:00,
2013-05-06 11:40:00,68.4,54.4,29.94,ESE,111,3.0,7.0,61,0.00,,,0.00,0.00,VWS V14.01,2013-05-06 15:40:00,
2013-05-06 11:43:00,68.5,53.2,29.94,SSE,149,1.0,9.0,58,0.00,,,0.00,0.00,VWS V14.01,2013-05-06 15:43:00,
2013-05-06 11:44:00,68.5,53.2,29.94,SW,217,1.0,5.0,58,0.00,,,0.00,0.00,VWS V14.01,2013-05-06 15:44:00,
2013-05-06 11:45:00,68.5,53.2,29.94,South,173,0.0,3.0,58,0.00,,,0.00,0.00,VWS V14.01,2013-05-06 15:45:00,
2013-05-06 11:49:00,68.7,53.3,29.94,SE,146,2.0,4.0,58,0.00,,,0.00,0.00,VWS V14.01,2013-05-06 15:49:00,
2013-05-06 11:50:00,68.8,53.4,29.94,ESE,120,8.0,8.0,58,0.00,,,0.00,0.00,VWS V14.01,2013-05-06 15:50:00,
2013-05-06 11:54:00,68.8,53.4,29.94,SSE,155,3.0,5.0,58,0.00,,,0.00,0.00,VWS V14.01,2013-05-06 15:54:00,
2013-05-06 11:55:00,68.8,53.0,29.94,SSE,161,0.0,4.0,57,0.00,,,0.00,0.00,VWS V14.01,2013-05-06 15:55:00,
2013-05-06 11:59:00,68.7,52.9,29.94,SE,125,2.0,2.0,57,0.00,,,0.00,0.00,VWS V14.01,2013-05-06 15:59:00,
2013-05-06 12:00:00,68.7,52.9,29.94,SE,144,6.0,7.0,57,0.00,,,0.00,0.00,VWS V14.01,2013-05-06 16:00:00,
2013-05-06 12:04:00,68.3,52.0,29.94,SE,125,3.0,4.0,56,0.00,,,0.00,0.00,VWS V14.01,2013-05-06 16:04:00,
2013-05-06 12:05:00,68.1,51.8,29.94,ESE,121,1.0,5.0,56,0.00,,,0.00,0.00,VWS V14.01,2013-05-06 16:05:00,
2013-05-06 12:09:00,67.9,52.6,29.94,South,173,3.0,3.0,58,0.00,,,0.00,0.00,VWS V14.01,2013-05-06 16:09:00,
2013-05-06 12:10:00,67.9,52.1,29.94,South,171,1.0,4.0,57,0.00,,,0.00,0.00,VWS V14.01,2013-05-06 16:10:00,
2013-05-06 12:14:00,67.9,53.1,29.94,SE,138,1.0,3.0,59,0.00,,,0.00,0.00,VWS V14.01,2013-05-06 16:14:00,
2013-05-06 12:15:00,68.0,53.2,29.94,SE,139,1.0,11.0,59,0.00,,,0.00,0.00,VWS V14.01,2013-05-06 16:15:00,
2013-05-06 12:19:00,67.6,52.8,29.94,ESE,116,4.0,7.0,59,0.00,,,0.00,0.00,VWS V14.01,2013-05-06 16:19:00,
2013-05-06 12:20:00,67.5,53.1,29.94,SW,224,3.0,6.0,60,0.00,,,0.00,0.00,VWS V14.01,2013-05-06 16:20:00,
2013-05-06 12:24:00,67.3,53.0,29.93,South,183,2.0,3.0,60,0.00,,,0.00,0.00,VWS V14.01,2013-05-06 16:24:00,
2013-05-06 12:25:00,67.2,53.3,29.93,South,175,0.0,4.0,61,0.00,,,0.00,0.00,VWS V14.01,2013-05-06 16:25:00,
2013-05-06 12:29:00,67.4,53.5,29.94,South,169,2.0,8.0,61,0.00,,,0.00,0.00,VWS V14.01,2013-05-06 16:29:00,
2013-05-06 12:30:00,67.4,53.5,29.93,SE,142,2.0,5.0,61,0.00,,,0.00,0.00,VWS V14.01,2013-05-06 16:30:00,
2013-05-06 12:34:00,67.4,53.5,29.93,SE,140,1.0,4.0,61,0.00,,,0.00,0.00,VWS V14.01,2013-05-06 16:34:00,
2013-05-06 12:35:00,67.4,53.5,29.94,SE,127,3.0,5.0,61,0.00,,,0.00,0.00,VWS V14.01,2013-05-06 16:35:00,
2013-05-06 12:39:00,67.4,53.0,29.94,SE,131,0.0,2.0,60,0.00,,,0.00,0.00,VWS V14.01,2013-05-06 16:39:00,
2013-05-06 12:40:00,67.4,53.5,29.94,SSE,167,3.0,7.0,61,0.00,,,0.00,0.00,VWS V14.01,2013-05-06 16:40:00,
2013-05-06 12:44:00,67.5,53.1,29.94,South,172,0.0,1.0,60,0.00,,,0.00,0.00,VWS V14.01,2013-05-06 16:44:00,
2013-05-06 12:45:00,67.6,53.7,29.94,ESE,103,0.0,5.0,61,0.00,,,0.00,0.00,VWS V14.01,2013-05-06 16:45:00,
2013-05-06 12:49:00,67.6,53.2,29.94,ESE,119,7.0,7.0,60,0.00,,,0.00,0.00,VWS V14.01,2013-05-06 16:49:00,
2013-05-06 12:50:00,67.6,53.2,29.93,SE,146,0.0,5.0,60,0.00,,,0.00,0.00,VWS V14.01,2013-05-06 16:50:00,
2013-05-06 12:51:00,67.6,53.7,29.94,SE,145,3.0,3.0,61,0.00,,,0.00,0.00,VWS V14.01,2013-05-06 16:51:00,
2013-05-06 12:54:00,67.8,54.3,29.93,South,170,6.0,6.0,62,0.00,,,0.00,0.00,VWS V14.01,2013-05-06 16:54:00,
2013-05-06 12:55:00,67.9,53.5,29.93,SE,142,1.0,6.0,60,0.00,,,0.00,0.00,VWS V14.01,2013-05-06 16:55:00,
2013-05-06 12:56:00,67.9,53.5,29.93,SSE,156,4.0,6.0,60,0.00,,,0.00,0.00,VWS V14.01,2013-05-06 16:56:00,
2013-05-06 12:59:00,68.0,53.6,29.93,SSE,162,1.0,3.0,60,0.00,,,0.00,0.00,VWS V14.01,2013-05-06 16:59:00,
2013-05-06 13:00:00,68.0,54.1,29.93,ESE,113,1.0,1.0,61,0.00,,,0.00,0.00,VWS V14.01,2013-05-06 17:00:00,
2013-05-06 13:01:00,68.0,54.1,29.93,ESE,113,0.0,1.0,61,0.00,,,0.00,0.00,VWS V14.01,2013-05-06 17:01:00,
2013-05-06 13:04:00,68.1,53.2,29.93,SE,130,3.0,12.0,59,0.00,,,0.00,0.00,VWS V14.01,2013-05-06 17:04:00,
2013-05-06 13:05:00,68.1,53.2,29.93,SE,144,0.0,6.0,59,0.00,,,0.00,0.00,VWS V14.01,2013-05-06 17:05:00,
2013-05-06 13:06:00,68.1,53.2,29.93,SE,144,3.0,6.0,59,0.00,,,0.00,0.00,VWS V14.01,2013-05-06 17:06:00,
2013-05-06 13:09:00,67.9,54.0,29.93,SSE,151,1.0,1.0,61,0.00,,,0.00,0.00,VWS V14.01,2013-05-06 17:09:00,
2013-05-06 13:10:00,67.9,53.5,29.94,SE,140,2.0,3.0,60,0.00,,,0.00,0.00,VWS V14.01,2013-05-06 17:10:00,
2013-05-06 13:11:00,67.9,53.5,29.93,SE,140,3.0,3.0,60,0.00,,,0.00,0.00,VWS V14.01,2013-05-06 17:11:00,
2013-05-06 13:14:00,67.9,53.5,29.94,SE,126,4.0,7.0,60,0.00,,,0.00,0.00,VWS V14.01,2013-05-06 17:14:00,
2013-05-06 13:15:00,67.8,53.4,29.93,SE,127,0.0,4.0,60,0.00,,,0.00,0.00,VWS V14.01,2013-05-06 17:15:00,
2013-05-06 13:16:00,67.8,53.4,29.93,SE,127,1.0,1.0,60,0.00,,,0.00,0.00,VWS V14.01,2013-05-06 17:16:00,
2013-05-06 13:20:00,67.6,54.1,29.94,South,169,1.0,3.0,62,0.00,,,0.00,0.00,VWS V14.01,2013-05-06 17:20:00,
2013-05-06 13:21:00,67.6,53.7,29.94,SE,144,2.0,6.0,61,0.00,,,0.00,0.00,VWS V14.01,2013-05-06 17:21:00,
2013-05-06 13:25:00,67.4,53.0,29.94,SSW,200,0.0,2.0,60,0.00,,,0.00,0.00,VWS V14.01,2013-05-06 17:25:00,
2013-05-06 13:26:00,67.3,53.0,29.94,South,190,3.0,3.0,60,0.00,,,0.00,0.00,VWS V14.01,2013-05-06 17:26:00,
2013-05-06 13:30:00,67.2,53.3,29.94,SE,146,0.0,1.0,61,0.00,,,0.00,0.00,VWS V14.01,2013-05-06 17:30:00,
2013-05-06 13:31:00,67.2,53.8,29.94,SW,216,4.0,6.0,62,0.00,,,0.00,0.00,VWS V14.01,2013-05-06 17:31:00,
2013-05-06 13:35:00,67.2,53.3,29.94,SE,144,1.0,7.0,61,0.00,,,0.00,0.00,VWS V14.01,2013-05-06 17:35:00,
2013-05-06 13:36:00,67.2,53.3,29.94,SE,126,4.0,4.0,61,0.00,,,0.00,0.00,VWS V14.01,2013-05-06 17:36:00,
2013-05-06 13:40:00,67.2,53.3,29.94,SSE,159,4.0,4.0,61,0.00,,,0.00,0.00,VWS V14.01,2013-05-06 17:40:00,
2013-05-06 13:41:00,67.2,53.3,29.94,SSW,213,5.0,5.0,61,0.00,,,0.00,0.00,VWS V14.01,2013-05-06 17:41:00,
2013-05-06 13:45:00,67.4,53.5,29.93,South,171,0.0,3.0,61,0.00,,,0.00,0.00,VWS V14.01,2013-05-06 17:45:00,
2013-05-06 13:46:00,67.4,53.5,29.94,SSE,149,0.0,1.0,61,0.00,,,0.00,0.00,VWS V14.01,2013-05-06 17:46:00,
2013-05-06 13:50:00,67.5,53.1,29.93,SSE,149,1.0,6.0,60,0.00,,,0.00,0.00,VWS V14.01,2013-05-06 17:50:00,
2013-05-06 13:51:00,67.5,53.1,29.93,SSE,165,1.0,4.0,60,0.00,,,0.00,0.00,VWS V14.01,2013-05-06 17:51:00,
2013-05-06 13:55:00,67.5,54.0,29.93,SE,128,4.0,9.0,62,0.00,,,0.00,0.00,VWS V14.01,2013-05-06 17:55:00,
2013-05-06 13:56:00,67.4,53.5,29.94,SE,124,2.0,4.0,61,0.00,,,0.00,0.00,VWS V14.01,2013-05-06 17:56:00,
2013-05-06 14:00:00,67.3,53.0,29.93,ESE,106,3.0,4.0,60,0.00,,,0.00,0.00,VWS V14.01,2013-05-06 18:00:00,
2013-05-06 14:01:00,67.2,53.3,29.93,ESE,105,2.0,3.0,61,0.00,,,0.00,0.00,VWS V14.01,2013-05-06 18:01:00,
2013-05-06 14:05:00,67.1,53.7,29.94,SSE,167,0.0,1.0,62,0.00,,,0.00,0.00,VWS V14.01,2013-05-06 18:05:00,
2013-05-06 14:06:00,67.1,53.7,29.94,SSE,165,2.0,3.0,62,0.00,,,0.00,0.00,VWS V14.01,2013-05-06 18:06:00,
2013-05-06 14:11:00,67.1,53.2,29.94,SE,145,1.0,1.0,61,0.00,,,0.00,0.00,VWS V14.01,2013-05-06 18:11:00,
2013-05-06 14:12:00,67.1,53.7,29.94,ESE,121,5.0,8.0,62,0.00,,,0.00,0.00,VWS V14.01,2013-05-06 18:12:00,
2013-05-06 14:16:00,67.1,53.2,29.94,SSE,167,4.0,8.0,61,0.00,,,0.00,0.00,VWS V14.01,2013-05-06 18:16:00,
2013-05-06 14:17:00,67.0,53.1,29.94,ESE,122,4.0,8.0,61,0.00,,,0.00,0.00,VWS V14.01,2013-05-06 18:17:00,
2013-05-06 14:21:00,66.7,52.8,29.94,SE,136,5.0,7.0,61,0.00,,,0.00,0.00,VWS V14.01,2013-05-06 18:21:00,
2013-05-06 14:22:00,66.6,52.3,29.93,SSE,150,4.0,8.0,60,0.00,,,0.00,0.00,VWS V14.01,2013-05-06 18:22:00,
2013-05-06 14:26:00,66.3,52.5,29.94,SE,145,1.0,3.0,61,0.00,,,0.00,0.00,VWS V14.01,2013-05-06 18:26:00,
2013-05-06 14:27:00,66.3,52.9,29.94,South,180,2.0,4.0,62,0.00,,,0.00,0.00,VWS V14.01,2013-05-06 18:27:00,
2013-05-06 14:31:00,66.3,52.9,29.94,SSE,167,3.0,5.0,62,0.00,,,0.00,0.00,VWS V14.01,2013-05-06 18:31:00,
2013-05-06 14:32:00,66.3,52.9,29.94,SE,143,6.0,6.0,62,0.00,,,0.00,0.00,VWS V14.01,2013-05-06 18:32:00,
2013-05-06 14:36:00,66.3,52.9,29.94,SE,128,1.0,1.0,62,0.00,,,0.00,0.00,VWS V14.01,2013-05-06 18:36:00,
2013-05-06 14:37:00,66.4,53.0,29.94,SE,128,2.0,2.0,62,0.00,,,0.00,0.00,VWS V14.01,2013-05-06 18:37:00,
2013-05-06 14:41:00,66.5,53.1,29.94,SE,135,4.0,4.0,62,0.00,,,0.00,0.00,VWS V14.01,2013-05-06 18:41:00,
2013-05-06 14:42:00,66.5,53.1,29.94,SE,136,1.0,5.0,62,0.00,,,0.00,0.00,VWS V14.01,2013-05-06 18:42:00,
2013-05-06 14:46:00,66.1,53.2,29.94,SE,138,6.0,9.0,63,0.00,,,0.00,0.00,VWS V14.01,2013-05-06 18:46:00,
2013-05-06 14:47:00,66.1,52.7,29.94,SE,132,4.0,9.0,62,0.00,,,0.00,0.00,VWS V14.01,2013-05-06 18:47:00,
2013-05-06 14:51:00,65.8,52.9,29.94,ESE,117,1.0,2.0,63,0.00,,,0.00,0.00,VWS V14.01,2013-05-06 18:51:00,
2013-05-06 14:52:00,65.8,52.9,29.94,ESE,121,1.0,2.0,63,0.00,,,0.00,0.00,VWS V14.01,2013-05-06 18:52:00,
2013-05-06 14:53:00,65.8,53.3,29.94,SE,126,6.0,6.0,64,0.00,,,0.00,0.00,VWS V14.01,2013-05-06 18:53:00,
2013-05-06 14:56:00,65.8,52.9,29.94,ESE,109,3.0,3.0,63,0.00,,,0.00,0.00,VWS V14.01,2013-05-06 18:56:00,
2013-05-06 14:57:00,65.9,53.4,29.94,SE,130,4.0,8.0,64,0.00,,,0.00,0.00,VWS V14.01,2013-05-06 18:57:00,
2013-05-06 14:58:00,65.9,53.0,29.94,SE,132,1.0,5.0,63,0.00,,,0.00,0.00,VWS V14.01,2013-05-06 18:58:00,
2013-05-06 15:01:00,66.2,53.2,29.94,SE,134,3.0,4.0,63,0.00,,,0.00,0.00,VWS V14.01,2013-05-06 19:01:00,
2013-05-06 15:02:00,66.2,53.2,29.94,ESE,103,0.0,0.0,63,0.00,,,0.00,0.00,VWS V14.01,2013-05-06 19:02:00,
2013-05-06 15:03:00,66.3,53.8,29.94,ESE,103,0.0,2.0,64,0.00,,,0.00,0.00,VWS V14.01,2013-05-06 19:03:00,
2013-05-06 15:06:00,66.6,53.6,29.93,SE,138,7.0,9.0,63,0.00,,,0.00,0.00,VWS V14.01,2013-05-06 19:06:00,
2013-05-06 15:07:00,66.7,53.7,29.93,SE,134,3.0,3.0,63,0.00,,,0.00,0.00,VWS V14.01,2013-05-06 19:07:00,
2013-05-06 15:08:00,66.8,54.2,29.93,ESE,122,1.0,2.0,64,0.00,,,0.00,0.00,VWS V14.01,2013-05-06 19:08:00,
2013-05-06 15:11:00,67.1,54.5,29.94,SSE,148,6.0,6.0,64,0.00,,,0.00,0.00,VWS V14.01,2013-05-06 19:11:00,
2013-05-06 15:12:00,67.1,54.1,29.93,SE,130,1.0,2.0,63,0.00,,,0.00,0.00,VWS V14.01,2013-05-06 19:12:00,
2013-05-06 15:13:00,67.2,54.6,29.93,SE,131,4.0,5.0,64,0.00,,,0.00,0.00,VWS V14.01,2013-05-06 19:13:00,
2013-05-06 15:16:00,67.3,54.3,29.93,ESE,121,2.0,7.0,63,0.00,,,0.00,0.00,VWS V14.01,2013-05-06 19:16:00,
2013-05-06 15:17:00,67.3,54.3,29.93,ESE,120,1.0,2.0,63,0.00,,,0.00,0.00,VWS V14.01,2013-05-06 19:17:00,
2013-05-06 15:18:00,67.4,54.8,29.93,ESE,104,3.0,5.0,64,0.00,,,0.00,0.00,VWS V14.01,2013-05-06 19:18:00,
2013-05-06 15:21:00,67.4,54.4,29.93,ESE,114,0.0,6.0,63,0.00,,,0.00,0.00,VWS V14.01,2013-05-06 19:21:00,
2013-05-06 15:22:00,67.4,54.8,29.93,ESE,115,3.0,4.0,64,0.00,,,0.00,0.00,VWS V14.01,2013-05-06 19:22:00,
2013-05-06 15:23:00,67.3,54.7,29.93,ESE,117,3.0,3.0,64,0.00,,,0.00,0.00,VWS V14.01,2013-05-06 19:23:00,
2013-05-06 15:27:00,67.2,54.2,29.93,SE,140,1.0,5.0,63,0.00,,,0.00,0.00,VWS V14.01,2013-05-06 19:27:00,
2013-05-06 15:28:00,67.1,54.5,29.93,SSE,148,4.0,9.0,64,0.00,,,0.00,0.00,VWS V14.01,2013-05-06 19:28:00,
2013-05-06 15:32:00,67.0,54.4,29.93,ESE,105,4.0,8.0,64,0.00,,,0.00,0.00,VWS V14.01,2013-05-06 19:32:00,
2013-05-06 15:33:00,66.9,54.3,29.93,ESE,120,3.0,4.0,64,0.00,,,0.00,0.00,VWS V14.01,2013-05-06 19:33:00,
2013-05-06 15:37:00,67.0,54.9,29.93,ESE,122,9.0,9.0,65,0.00,,,0.00,0.00,VWS V14.01,2013-05-06 19:37:00,
2013-05-06 15:38:00,67.1,54.5,29.93,SSE,168,2.0,3.0,64,0.00,,,0.00,0.00,VWS V14.01,2013-05-06 19:38:00,
2013-05-06 15:42:00,67.3,54.7,29.93,SE,145,4.0,4.0,64,0.00,,,0.00,0.00,VWS V14.01,2013-05-06 19:42:00,
2013-05-06 15:43:00,67.4,54.8,29.93,SE,136,3.0,6.0,64,0.00,,,0.00,0.00,VWS V14.01,2013-05-06 19:43:00,
2013-05-06 15:47:00,67.1,54.5,29.93,SE,134,4.0,4.0,64,0.00,,,0.00,0.00,VWS V14.01,2013-05-06 19:47:00,
2013-05-06 15:48:00,67.1,54.5,29.93,SE,140,3.0,3.0,64,0.00,,,0.00,0.00,VWS V14.01,2013-05-06 19:48:00,
2013-05-06 15:52:00,66.9,54.3,29.93,SE,124,6.0,9.0,64,0.00,,,0.00,0.00,VWS V14.01,2013-05-06 19:52:00,
2013-05-06 15:53:00,67.0,54.4,29.93,SE,130,4.0,9.0,64,0.00,,,0.00,0.00,VWS V14.01,2013-05-06 19:53:00,
2013-05-06 15:57:00,67.0,54.9,29.92,SE,142,3.0,5.0,65,0.00,,,0.00,0.00,VWS V14.01,2013-05-06 19:57:00,
2013-05-06 15:58:00,67.1,55.0,29.92,SE,142,1.0,5.0,65,0.00,,,0.00,0.00,VWS V14.01,2013-05-06 19:58:00,
2013-05-06 16:02:00,67.5,54.9,29.92,SE,136,0.0,2.0,64,0.00,,,0.00,0.00,VWS V14.01,2013-05-06 20:02:00,
2013-05-06 16:03:00,67.6,55.0,29.92,SE,136,1.0,4.0,64,0.00,,,0.00,0.00,VWS V14.01,2013-05-06 20:03:00,
2013-05-06 16:07:00,68.0,55.0,29.92,SE,144,5.0,5.0,63,0.00,,,0.00,0.00,VWS V14.01,2013-05-06 20:07:00,
2013-05-06 16:08:00,67.9,54.4,29.92,SE,137,4.0,7.0,62,0.00,,,0.00,0.00,VWS V14.01,2013-05-06 20:08:00,
2013-05-06 16:09:00,67.8,54.3,29.92,ESE,120,5.0,7.0,62,0.00,,,0.00,0.00,VWS V14.01,2013-05-06 20:09:00,
2013-05-06 16:12:00,67.4,54.4,29.92,SE,140,8.0,8.0,63,0.00,,,0.00,0.00,VWS V14.01,2013-05-06 20:12:00,
2013-05-06 16:13:00,67.3,54.7,29.92,SE,126,2.0,2.0,64,0.00,,,0.00,0.00,VWS V14.01,2013-05-06 20:13:00,
2013-05-06 16:14:00,67.2,54.6,29.92,SE,126,3.0,3.0,64,0.00,,,0.00,0.00,VWS V14.01,2013-05-06 20:14:00,
2013-05-06 16:17:00,67.0,54.4,29.92,SE,134,0.0,5.0,64,0.00,,,0.00,0.00,VWS V14.01,2013-05-06 20:17:00,
2013-05-06 16:18:00,67.0,54.9,29.92,ESE,120,5.0,5.0,65,0.00,,,0.00,0.00,VWS V14.01,2013-05-06 20:18:00,
2013-05-06 16:19:00,67.0,54.9,29.92,SE,146,1.0,1.0,65,0.00,,,0.00,0.00,VWS V14.01,2013-05-06 20:19:00,
2013-05-06 16:22:00,67.0,54.4,29.92,SE,140,9.0,9.0,64,0.00,,,0.00,0.00,VWS V14.01,2013-05-06 20:22:00,
2013-05-06 16:23:00,67.0,54.4,29.92,ESE,108,4.0,4.0,64,0.00,,,0.00,0.00,VWS V14.01,2013-05-06 20:23:00,
2013-05-06 16:24:00,67.0,54.9,29.92,SE,132,3.0,4.0,65,0.00,,,0.00,0.00,VWS V14.01,2013-05-06 20:24:00,
2013-05-06 16:27:00,67.1,55.0,29.91,ESE,123,2.0,3.0,65,0.00,,,0.00,0.00,VWS V14.01,2013-05-06 20:27:00,
2013-05-06 16:28:00,67.2,55.0,29.91,ESE,118,2.0,2.0,65,0.00,,,0.00,0.00,VWS V14.01,2013-05-06 20:28:00,
2013-05-06 16:29:00,67.3,55.2,29.91,ESE,118,0.0,0.0,65,0.00,,,0.00,0.00,VWS V14.01,2013-05-06 20:29:00,
2013-05-06 16:32:00,67.8,54.8,29.91,SE,143,6.0,6.0,63,0.00,,,0.00,0.00,VWS V14.01,2013-05-06 20:32:00,
2013-05-06 16:33:00,67.9,54.4,29.91,ESE,106,1.0,5.0,62,0.00,,,0.00,0.00,VWS V14.01,2013-05-06 20:33:00,
2013-05-06 16:34:00,68.1,55.5,29.91,ESE,113,4.0,4.0,64,0.00,,,0.00,0.00,VWS V14.01,2013-05-06 20:34:00,
2013-05-06 16:37:00,68.6,55.1,29.91,SE,136,1.0,3.0,62,0.00,,,0.00,0.00,VWS V14.01,2013-05-06 20:37:00,
2013-05-06 16:38:00,68.8,55.7,29.91,SE,134,0.0,3.0,63,0.00,,,0.00,0.00,VWS V14.01,2013-05-06 20:38:00,
2013-05-06 16:39:00,69.0,55.5,29.91,SE,142,2.0,5.0,62,0.00,,,0.00,0.00,VWS V14.01,2013-05-06 20:39:00,
2013-05-06 16:42:00,69.7,55.7,29.91,SE,130,2.0,5.0,61,0.00,,,0.00,0.00,VWS V14.01,2013-05-06 20:42:00,
2013-05-06 16:43:00,69.8,54.8,29.91,SE,131,6.0,9.0,59,0.00,,,0.00,0.00,VWS V14.01,2013-05-06 20:43:00,
2013-05-06 16:44:00,69.8,54.8,29.91,SE,129,6.0,8.0,59,0.00,,,0.00,0.00,VWS V14.01,2013-05-06 20:44:00,
2013-05-06 16:47:00,69.5,55.0,29.90,ESE,122,2.0,4.0,60,0.00,,,0.00,0.00,VWS V14.01,2013-05-06 20:47:00,
2013-05-06 16:48:00,69.4,54.5,29.91,SE,126,4.0,6.0,59,0.00,,,0.00,0.00,VWS V14.01,2013-05-06 20:48:00,
2013-05-06 16:49:00,69.2,54.7,29.91,SE,143,1.0,3.0,60,0.00,,,0.00,0.00,VWS V14.01,2013-05-06 20:49:00,
2013-05-06 16:52:00,69.0,54.5,29.90,SSE,147,5.0,8.0,60,0.00,,,0.00,0.00,VWS V14.01,2013-05-06 20:52:00,
2013-05-06 16:53:00,68.9,54.5,29.90,SSE,147,0.0,7.0,60,0.00,,,0.00,0.00,VWS V14.01,2013-05-06 20:53:00,
2013-05-06 16:54:00,68.9,54.9,29.90,SSE,150,7.0,8.0,61,0.00,,,0.00,0.00,VWS V14.01,2013-05-06 20:54:00,
2013-05-06 16:57:00,68.6,54.6,29.90,ESE,121,1.0,3.0,61,0.00,,,0.00,0.00,VWS V14.01,2013-05-06 20:57:00,
2013-05-06 16:58:00,68.6,54.6,29.90,East,96,6.0,9.0,61,0.00,,,0.00,0.00,VWS V14.01,2013-05-06 20:58:00,
2013-05-06 16:59:00,68.6,54.6,29.90,ESE,104,2.0,3.0,61,0.00,,,0.00,0.00,VWS V14.01,2013-05-06 20:59:00,
2013-05-06 17:03:00,68.5,54.5,29.90,ESE,118,3.0,10.0,61,0.00,,,0.00,0.00,VWS V14.01,2013-05-06 21:03:00,
2013-05-06 17:04:00,68.4,54.4,29.90,SE,145,6.0,7.0,61,0.00,,,0.00,0.00,VWS V14.01,2013-05-06 21:04:00,
2013-05-06 17:08:00,68.2,54.2,29.90,SE,132,5.0,5.0,61,0.00,,,0.00,0.00,VWS V14.01,2013-05-06 21:08:00,
2013-05-06 17:09:00,68.1,54.2,29.90,SE,132,5.0,5.0,61,0.00,,,0.00,0.00,VWS V14.01,2013-05-06 21:09:00,
2013-05-06 17:13:00,67.9,54.4,29.90,SSE,162,8.0,9.0,62,0.00,,,0.00,0.00,VWS V14.01,2013-05-06 21:13:00,
2013-05-06 17:14:00,67.8,54.3,29.90,SE,129,4.0,5.0,62,0.00,,,0.00,0.00,VWS V14.01,2013-05-06 21:14:00,
2013-05-06 17:15:00,67.8,54.3,29.90,SE,132,5.0,7.0,62,0.00,,,0.00,0.00,VWS V14.01,2013-05-06 21:15:00,
2013-05-06 17:18:00,67.8,54.8,29.90,East,101,0.0,4.0,63,0.00,,,0.00,0.00,VWS V14.01,2013-05-06 21:18:00,
2013-05-06 17:19:00,67.7,54.7,29.90,ESE,123,3.0,5.0,63,0.00,,,0.00,0.00,VWS V14.01,2013-05-06 21:19:00,
2013-05-06 17:20:00,67.7,54.7,29.90,ESE,123,4.0,4.0,63,0.00,,,0.00,0.00,VWS V14.01,2013-05-06 21:20:00,
2013-05-06 17:23:00,67.6,55.0,29.90,SE,143,3.0,4.0,64,0.00,,,0.00,0.00,VWS V14.01,2013-05-06 21:23:00,
2013-05-06 17:24:00,67.6,55.0,29.90,SE,136,0.0,1.0,64,0.00,,,0.00,0.00,VWS V14.01,2013-05-06 21:24:00,
2013-05-06 17:25:00,67.6,55.0,29.90,SE,138,4.0,4.0,64,0.00,,,0.00,0.00,VWS V14.01,2013-05-06 21:25:00,
2013-05-06 17:28:00,67.4,54.4,29.90,SE,130,1.0,3.0,63,0.00,,,0.00,0.00,VWS V14.01,2013-05-06 21:28:00,
2013-05-06 17:29:00,67.4,54.4,29.90,SE,144,2.0,4.0,63,0.00,,,0.00,0.00,VWS V14.01,2013-05-06 21:29:00,
2013-05-06 17:30:00,67.4,54.8,29.90,ESE,123,2.0,2.0,64,0.00,,,0.00,0.00,VWS V14.01,2013-05-06 21:30:00,
2013-05-06 17:33:00,67.2,54.6,29.90,SE,138,1.0,8.0,64,0.00,,,0.00,0.00,VWS V14.01,2013-05-06 21:33:00,
2013-05-06 17:34:00,67.2,54.6,29.90,SE,139,2.0,2.0,64,0.00,,,0.00,0.00,VWS V14.01,2013-05-06 21:34:00,
2013-05-06 17:35:00,67.2,55.0,29.90,SSE,157,5.0,5.0,65,0.00,,,0.00,0.00,VWS V14.01,2013-05-06 21:35:00,
2013-05-06 17:38:00,67.2,54.6,29.90,SE,138,7.0,8.0,64,0.00,,,0.00,0.00,VWS V14.01,2013-05-06 21:38:00,
2013-05-06 17:39:00,67.2,54.6,29.90,SSE,155,4.0,11.0,64,0.00,,,0.00,0.00,VWS V14.01,2013-05-06 21:39:00,
2013-05-06 17:40:00,67.2,54.6,29.90,SSW,212,6.0,7.0,64,0.00,,,0.00,0.00,VWS V14.01,2013-05-06 21:40:00,
2013-05-06 17:43:00,67.1,55.0,29.90,SE,136,6.0,8.0,65,0.00,,,0.00,0.00,VWS V14.01,2013-05-06 21:43:00,
2013-05-06 17:44:00,67.0,54.9,29.90,SE,134,4.0,5.0,65,0.00,,,0.00,0.00,VWS V14.01,2013-05-06 21:44:00,
2013-05-06 17:45:00,67.0,54.9,29.90,SE,131,1.0,1.0,65,0.00,,,0.00,0.00,VWS V14.01,2013-05-06 21:45:00,
2013-05-06 17:48:00,67.0,55.3,29.90,SE,134,7.0,9.0,66,0.00,,,0.00,0.00,VWS V14.01,2013-05-06 21:48:00,
2013-05-06 17:49:00,66.9,55.2,29.91,ESE,119,1.0,4.0,66,0.00,,,0.00,0.00,VWS V14.01,2013-05-06 21:49:00,
2013-05-06 17:50:00,67.0,55.3,29.91,ESE,119,0.0,4.0,66,0.00,,,0.00,0.00,VWS V14.01,2013-05-06 21:50:00,
2013-05-06 17:53:00,66.9,55.6,29.91,SE,128,1.0,3.0,67,0.00,,,0.00,0.00,VWS V14.01,2013-05-06 21:53:00,
2013-05-06 17:54:00,66.9,55.6,29.90,SE,132,0.0,4.0,67,0.00,,,0.00,0.00,VWS V14.01,2013-05-06 21:54:00,
2013-05-06 17:55:00,66.9,55.6,29.91,SE,135,6.0,6.0,67,0.00,,,0.00,0.00,VWS V14.01,2013-05-06 21:55:00,
2013-05-06 17:58:00,66.8,55.9,29.91,South,169,1.0,1.0,68,0.00,,,0.00,0.00,VWS V14.01,2013-05-06 21:58:00,
2013-05-06 17:59:00,66.8,55.9,29.91,South,169,2.0,2.0,68,0.00,,,0.00,0.00,VWS V14.01,2013-05-06 21:59:00,
2013-05-06 18:00:00,66.8,55.9,29.91,South,169,0.0,0.0,68,0.00,,,0.00,0.00,VWS V14.01,2013-05-06 22:00:00,
2013-05-06 18:03:00,66.7,55.4,29.91,SE,139,3.0,5.0,67,0.00,,,0.00,0.00,VWS V14.01,2013-05-06 22:03:00,
2013-05-06 18:04:00,66.7,55.4,29.91,SE,135,4.0,4.0,67,0.00,,,0.00,0.00,VWS V14.01,2013-05-06 22:04:00,
2013-05-06 18:05:00,66.7,55.4,29.91,SE,135,1.0,1.0,67,0.00,,,0.00,0.00,VWS V14.01,2013-05-06 22:05:00,
2013-05-06 18:08:00,66.8,55.5,29.91,SE,141,3.0,5.0,67,0.00,,,0.00,0.00,VWS V14.01,2013-05-06 22:08:00,
2013-05-06 18:09:00,66.8,55.1,29.91,SE,141,1.0,6.0,66,0.00,,,0.00,0.00,VWS V14.01,2013-05-06 22:09:00,
2013-05-06 18:10:00,66.8,55.1,29.91,SE,142,3.0,3.0,66,0.00,,,0.00,0.00,VWS V14.01,2013-05-06 22:10:00,
2013-05-06 18:13:00,66.8,54.2,29.91,ESE,123,0.0,3.0,64,0.00,,,0.00,0.00,VWS V14.01,2013-05-06 22:13:00,
2013-05-06 18:14:00,66.9,54.3,29.90,SE,130,2.0,3.0,64,0.00,,,0.00,0.00,VWS V14.01,2013-05-06 22:14:00,
2013-05-06 18:15:00,66.9,54.3,29.91,SE,130,1.0,1.0,64,0.00,,,0.00,0.00,VWS V14.01,2013-05-06 22:15:00,
2013-05-06 18:19:00,67.0,54.0,29.90,SE,132,1.0,3.0,63,0.00,,,0.00,0.00,VWS V14.01,2013-05-06 22:19:00,
2013-05-06 18:20:00,67.0,54.0,29.90,South,186,0.0,0.0,63,0.00,,,0.00,0.00,VWS V14.01,2013-05-06 22:20:00,
2013-05-06 18:24:00,67.2,53.8,29.90,South,184,1.0,1.0,62,0.00,,,0.00,0.00,VWS V14.01,2013-05-06 22:24:00,
2013-05-06 18:25:00,67.2,54.2,29.90,South,184,0.0,0.0,63,0.00,,,0.00,0.00,VWS V14.01,2013-05-06 22:25:00,
2013-05-06 18:29:00,67.4,53.0,29.90,West,261,1.0,5.0,60,0.00,,,0.00,0.00,VWS V14.01,2013-05-06 22:29:00,
2013-05-06 18:30:00,67.6,52.8,29.90,SSE,157,5.0,5.0,59,0.00,,,0.00,0.00,VWS V14.01,2013-05-06 22:30:00,
2013-05-06 18:34:00,67.9,52.1,29.91,SSE,153,2.0,2.0,57,0.00,,,0.00,0.00,VWS V14.01,2013-05-06 22:34:00,
2013-05-06 18:35:00,68.0,52.2,29.90,ESE,119,2.0,4.0,57,0.00,,,0.00,0.00,VWS V14.01,2013-05-06 22:35:00,
2013-05-06 18:39:00,68.3,52.5,29.90,SE,137,0.0,4.0,57,0.00,,,0.00,0.00,VWS V14.01,2013-05-06 22:39:00,
2013-05-06 18:40:00,68.4,52.6,29.90,SE,136,0.0,1.0,57,0.00,,,0.00,0.00,VWS V14.01,2013-05-06 22:40:00,
2013-05-06 18:44:00,68.7,52.9,29.90,SSE,167,1.0,2.0,57,0.00,,,0.00,0.00,VWS V14.01,2013-05-06 22:44:00,
2013-05-06 18:45:00,68.8,53.0,29.90,SSE,167,1.0,1.0,57,0.00,,,0.00,0.00,VWS V14.01,2013-05-06 22:45:00,
2013-05-06 18:46:00,68.9,53.5,29.90,SSE,167,0.0,1.0,58,0.00,,,0.00,0.00,VWS V14.01,2013-05-06 22:46:00,
2013-05-06 18:49:00,69.2,53.3,29.90,SSE,161,0.0,3.0,57,0.00,,,0.00,0.00,VWS V14.01,2013-05-06 22:49:00,
2013-05-06 18:50:00,69.3,53.0,29.90,SSE,161,2.0,2.0,56,0.00,,,0.00,0.00,VWS V14.01,2013-05-06 22:50:00,
2013-05-06 18:51:00,69.4,53.0,29.90,SSE,160,1.0,1.0,56,0.00,,,0.00,0.00,VWS V14.01,2013-05-06 22:51:00,
2013-05-06 18:54:00,69.6,52.7,29.90,SE,135,1.0,2.0,55,0.00,,,0.00,0.00,VWS V14.01,2013-05-06 22:54:00,
2013-05-06 18:55:00,69.7,53.3,29.90,SE,128,0.0,1.0,56,0.00,,,0.00,0.00,VWS V14.01,2013-05-06 22:55:00,
2013-05-06 18:56:00,69.7,53.3,29.90,SSW,209,0.0,1.0,56,0.00,,,0.00,0.00,VWS V14.01,2013-05-06 22:56:00,
2013-05-06 18:59:00,70.0,52.6,29.90,WSW,247,4.0,6.0,54,0.00,,,0.00,0.00,VWS V14.01,2013-05-06 22:59:00,
2013-05-06 19:00:00,70.0,52.6,29.90,East,82,2.0,2.0,54,0.00,,,0.00,0.00,VWS V14.01,2013-05-06 23:00:00,
2013-05-06 19:01:00,70.1,52.2,29.90,SSE,148,5.0,7.0,53,0.00,,,0.00,0.00,VWS V14.01,2013-05-06 23:01:00,
2013-05-06 19:04:00,70.2,53.3,29.90,SE,137,1.0,2.0,55,0.00,,,0.00,0.00,VWS V14.01,2013-05-06 23:04:00,
2013-05-06 19:05:00,70.2,52.8,29.90,SSE,157,5.0,5.0,54,0.00,,,0.00,0.00,VWS V14.01,2013-05-06 23:05:00,
2013-05-06 19:06:00,70.3,52.4,29.90,ESE,121,1.0,7.0,53,0.00,,,0.00,0.00,VWS V14.01,2013-05-06 23:06:00,
2013-05-06 19:09:00,70.3,52.9,29.90,SSE,161,8.0,9.0,54,0.00,,,0.00,0.00,VWS V14.01,2013-05-06 23:09:00,
2013-05-06 19:10:00,70.3,52.4,29.90,SSE,150,2.0,2.0,53,0.00,,,0.00,0.00,VWS V14.01,2013-05-06 23:10:00,
2013-05-06 19:11:00,70.3,52.4,29.90,SE,141,1.0,3.0,53,0.00,,,0.00,0.00,VWS V14.01,2013-05-06 23:11:00,
2013-05-06 19:14:00,70.1,52.2,29.90,SE,144,0.0,3.0,53,0.00,,,0.00,0.00,VWS V14.01,2013-05-06 23:14:00,
2013-05-06 19:15:00,70.1,52.7,29.90,SE,146,0.0,4.0,54,0.00,,,0.00,0.00,VWS V14.01,2013-05-06 23:15:00,
2013-05-06 19:16:00,70.1,52.2,29.90,SE,146,4.0,4.0,53,0.00,,,0.00,0.00,VWS V14.01,2013-05-06 23:16:00,
2013-05-06 19:20:00,69.9,52.0,29.90,SE,144,1.0,5.0,53,0.00,,,0.00,0.00,VWS V14.01,2013-05-06 23:20:00,
2013-05-06 19:21:00,69.8,51.9,29.90,SE,144,3.0,5.0,53,0.00,,,0.00,0.00,VWS V14.01,2013-05-06 23:21:00,
2013-05-06 19:25:00,69.7,52.3,29.90,SE,130,4.0,5.0,54,0.00,,,0.00,0.00,VWS V14.01,2013-05-06 23:25:00,
2013-05-06 19:26:00,69.7,52.3,29.90,ESE,120,4.0,7.0,54,0.00,,,0.00,0.00,VWS V14.01,2013-05-06 23:26:00,
2013-05-06 19:30:00,69.6,52.7,29.90,SSE,148,2.0,2.0,55,0.00,,,0.00,0.00,VWS V14.01,2013-05-06 23:30:00,
2013-05-06 19:31:00,69.6,52.7,29.90,SE,128,3.0,4.0,55,0.00,,,0.00,0.00,VWS V14.01,2013-05-06 23:31:00,
2013-05-06 19:35:00,69.5,52.6,29.90,SSE,150,2.0,2.0,55,0.00,,,0.00,0.00,VWS V14.01,2013-05-06 23:35:00,
2013-05-06 19:36:00,69.5,52.6,29.90,SSE,154,1.0,1.0,55,0.00,,,0.00,0.00,VWS V14.01,2013-05-06 23:36:00,
2013-05-06 19:40:00,69.4,52.5,29.90,SE,146,4.0,4.0,55,0.00,,,0.00,0.00,VWS V14.01,2013-05-06 23:40:00,
2013-05-06 19:41:00,69.3,52.5,29.90,SE,145,0.0,4.0,55,0.00,,,0.00,0.00,VWS V14.01,2013-05-06 23:41:00,
2013-05-06 19:45:00,69.1,52.8,29.90,SE,145,5.0,5.0,56,0.00,,,0.00,0.00,VWS V14.01,2013-05-06 23:45:00,
2013-05-06 19:46:00,69.0,52.7,29.90,SE,144,0.0,5.0,56,0.00,,,0.00,0.00,VWS V14.01,2013-05-06 23:46:00,
2013-05-06 19:50:00,68.7,52.9,29.91,SE,138,1.0,5.0,57,0.00,,,0.00,0.00,VWS V14.01,2013-05-06 23:50:00,
2013-05-06 19:51:00,68.7,52.9,29.91,SE,138,2.0,2.0,57,0.00,,,0.00,0.00,VWS V14.01,2013-05-06 23:51:00,
2013-05-06 19:55:00,68.4,53.1,29.91,SE,138,0.0,2.0,58,0.00,,,0.00,0.00,VWS V14.01,2013-05-06 23:55:00,
2013-05-06 19:56:00,68.4,53.1,29.91,SE,138,0.0,1.0,58,0.00,,,0.00,0.00,VWS V14.01,2013-05-06 23:56:00,
2013-05-06 19:57:00,68.4,53.1,29.91,SE,138,2.0,3.0,58,0.00,,,0.00,0.00,VWS V14.01,2013-05-06 23:57:00,
2013-05-06 20:00:00,68.2,52.9,29.91,SE,138,1.0,2.0,58,0.00,,,0.00,0.00,VWS V14.01,2013-05-07 00:00:00,
2013-05-06 20:01:00,68.2,52.9,29.91,SE,138,0.0,1.0,58,0.00,,,0.00,0.00,VWS V14.01,2013-05-07 00:01:00,
2013-05-06 20:02:00,68.2,52.9,29.91,SE,138,0.0,1.0,58,0.00,,,0.00,0.00,VWS V14.01,2013-05-07 00:02:00,
2013-05-06 20:05:00,68.0,53.2,29.91,ESE,121,0.0,3.0,59,0.00,,,0.00,0.00,VWS V14.01,2013-05-07 00:05:00,
2013-05-06 20:06:00,68.0,53.2,29.91,ESE,121,0.0,1.0,59,0.00,,,0.00,0.00,VWS V14.01,2013-05-07 00:06:00,
2013-05-06 20:07:00,68.0,53.2,29.91,ESE,121,0.0,0.0,59,0.00,,,0.00,0.00,VWS V14.01,2013-05-07 00:07:00,
2013-05-06 20:10:00,67.9,53.1,29.91,ESE,121,0.0,0.0,59,0.00,,,0.00,0.00,VWS V14.01,2013-05-07 00:10:00,
2013-05-06 20:11:00,67.9,53.1,29.91,East,98,0.0,0.0,59,0.00,,,0.00,0.00,VWS V14.01,2013-05-07 00:11:00,
2013-05-06 20:12:00,67.9,53.5,29.91,East,100,1.0,3.0,60,0.00,,,0.00,0.00,VWS V14.01,2013-05-07 00:12:00,
2013-05-06 20:15:00,67.8,53.0,29.91,East,100,0.0,1.0,59,0.00,,,0.00,0.00,VWS V14.01,2013-05-07 00:15:00,
2013-05-06 20:16:00,67.8,53.4,29.91,East,100,0.0,1.0,60,0.00,,,0.00,0.00,VWS V14.01,2013-05-07 00:16:00,
2013-05-06 20:17:00,67.8,53.4,29.91,East,100,0.0,0.0,60,0.00,,,0.00,0.00,VWS V14.01,2013-05-07 00:17:00,
2013-05-06 20:20:00,67.7,53.3,29.91,ESE,112,0.0,1.0,60,0.00,,,0.00,0.00,VWS V14.01,2013-05-07 00:20:00,
2013-05-06 20:21:00,67.7,53.3,29.91,ESE,112,0.0,1.0,60,0.00,,,0.00,0.00,VWS V14.01,2013-05-07 00:21:00,
2013-05-06 20:22:00,67.6,53.2,29.91,ESE,112,0.0,1.0,60,0.00,,,0.00,0.00,VWS V14.01,2013-05-07 00:22:00,
2013-05-06 20:26:00,67.5,53.6,29.91,ESE,112,0.0,1.0,61,0.00,,,0.00,0.00,VWS V14.01,2013-05-07 00:26:00,
2013-05-06 20:27:00,67.4,53.5,29.92,ESE,112,0.0,0.0,61,0.00,,,0.00,0.00,VWS V14.01,2013-05-07 00:27:00,
2013-05-06 20:31:00,67.3,53.8,29.91,ESE,112,0.0,0.0,62,0.00,,,0.00,0.00,VWS V14.01,2013-05-07 00:31:00,
2013-05-06 20:32:00,67.2,53.8,29.92,ESE,112,0.0,0.0,62,0.00,,,0.00,0.00,VWS V14.01,2013-05-07 00:32:00,
2013-05-06 20:36:00,67.1,53.7,29.92,ESE,112,0.0,0.0,62,0.00,,,0.00,0.00,VWS V14.01,2013-05-07 00:36:00,
2013-05-06 20:37:00,67.1,53.7,29.92,ESE,112,0.0,0.0,62,0.00,,,0.00,0.00,VWS V14.01,2013-05-07 00:37:00,
2013-05-06 20:41:00,67.0,54.0,29.92,ESE,112,0.0,0.0,63,0.00,,,0.00,0.00,VWS V14.01,2013-05-07 00:41:00,
2013-05-06 20:42:00,66.9,53.9,29.92,ESE,112,0.0,0.0,63,0.00,,,0.00,0.00,VWS V14.01,2013-05-07 00:42:00,
2013-05-06 20:46:00,66.8,53.8,29.92,ESE,112,0.0,0.0,63,0.00,,,0.00,0.00,VWS V14.01,2013-05-07 00:46:00,
2013-05-06 20:48:00,66.7,53.7,29.92,ESE,112,0.0,0.0,63,0.00,,,0.00,0.00,VWS V14.01,2013-05-07 00:48:00,
2013-05-06 20:51:00,66.6,54.1,29.92,ESE,112,0.0,0.0,64,0.00,,,0.00,0.00,VWS V14.01,2013-05-07 00:51:00,
2013-05-06 20:53:00,66.6,54.5,29.92,ESE,112,0.0,0.0,65,0.00,,,0.00,0.00,VWS V14.01,2013-05-07 00:53:00,
2013-05-06 20:56:00,66.5,54.4,29.92,ESE,112,0.0,0.0,65,0.00,,,0.00,0.00,VWS V14.01,2013-05-07 00:56:00,
2013-05-06 20:58:00,66.4,54.7,29.92,ESE,112,0.0,0.0,66,0.00,,,0.00,0.00,VWS V14.01,2013-05-07 00:58:00,
2013-05-06 21:01:00,66.2,54.5,29.92,ESE,112,0.0,0.0,66,0.00,,,0.00,0.00,VWS V14.01,2013-05-07 01:01:00,
2013-05-06 21:02:00,66.2,54.5,29.92,ESE,112,0.0,0.0,66,0.00,,,0.00,0.00,VWS V14.01,2013-05-07 01:02:00,
2013-05-06 21:03:00,66.2,54.5,29.92,ESE,112,0.0,0.0,66,0.00,,,0.00,0.00,VWS V14.01,2013-05-07 01:03:00,
2013-05-06 21:06:00,66.1,54.4,29.92,ESE,112,0.0,0.0,66,0.00,,,0.00,0.00,VWS V14.01,2013-05-07 01:06:00,
2013-05-06 21:07:00,66.0,54.7,29.92,ESE,112,0.0,0.0,67,0.00,,,0.00,0.00,VWS V14.01,2013-05-07 01:07:00,
2013-05-06 21:08:00,66.0,55.2,29.92,ESE,112,0.0,0.0,68,0.00,,,0.00,0.00,VWS V14.01,2013-05-07 01:08:00,
2013-05-06 21:11:00,65.9,55.0,29.92,ESE,112,0.0,0.0,68,0.00,,,0.00,0.00,VWS V14.01,2013-05-07 01:11:00,
2013-05-06 21:12:00,65.9,54.7,29.92,ESE,112,0.0,0.0,67,0.00,,,0.00,0.00,VWS V14.01,2013-05-07 01:12:00,
2013-05-06 21:13:00,65.9,55.0,29.92,ESE,112,0.0,0.0,68,0.00,,,0.00,0.00,VWS V14.01,2013-05-07 01:13:00,
2013-05-06 21:16:00,65.7,54.9,29.92,ESE,112,0.0,0.0,68,0.00,,,0.00,0.00,VWS V14.01,2013-05-07 01:16:00,
2013-05-06 21:17:00,65.7,55.3,29.92,ESE,112,0.0,0.0,69,0.00,,,0.00,0.00,VWS V14.01,2013-05-07 01:17:00,
2013-05-06 21:18:00,65.6,55.2,29.92,ESE,112,0.0,0.0,69,0.00,,,0.00,0.00,VWS V14.01,2013-05-07 01:18:00,
2013-05-06 21:21:00,65.4,55.0,29.92,ESE,112,0.0,0.0,69,0.00,,,0.00,0.00,VWS V14.01,2013-05-07 01:21:00,
2013-05-06 21:22:00,65.3,54.9,29.92,ESE,112,0.0,0.0,69,0.00,,,0.00,0.00,VWS V14.01,2013-05-07 01:22:00,
2013-05-06 21:23:00,65.2,55.2,29.92,ESE,112,0.0,0.0,70,0.00,,,0.00,0.00,VWS V14.01,2013-05-07 01:23:00,
2013-05-06 21:26:00,65.0,54.6,29.92,ESE,112,0.0,0.0,69,0.00,,,0.00,0.00,VWS V14.01,2013-05-07 01:26:00,
2013-05-06 21:27:00,65.0,55.0,29.92,ESE,112,0.0,0.0,70,0.00,,,0.00,0.00,VWS V14.01,2013-05-07 01:27:00,
2013-05-06 21:28:00,64.9,54.9,29.92,ESE,112,0.0,0.0,70,0.00,,,0.00,0.00,VWS V14.01,2013-05-07 01:28:00,
2013-05-06 21:31:00,64.7,55.1,29.92,ESE,112,0.0,0.0,71,0.00,,,0.00,0.00,VWS V14.01,2013-05-07 01:31:00,
2013-05-06 21:32:00,64.7,55.1,29.92,ESE,112,0.0,0.0,71,0.00,,,0.00,0.00,VWS V14.01,2013-05-07 01:32:00,
2013-05-06 21:33:00,64.6,55.0,29.92,ESE,112,0.0,0.0,71,0.00,,,0.00,0.00,VWS V14.01,2013-05-07 01:33:00,
2013-05-06 21:36:00,64.4,54.8,29.92,ESE,112,0.0,0.0,71,0.00,,,0.00,0.00,VWS V14.01,2013-05-07 01:36:00,
2013-05-06 21:37:00,64.4,54.8,29.92,ESE,112,0.0,0.0,71,0.00,,,0.00,0.00,VWS V14.01,2013-05-07 01:37:00,
2013-05-06 21:38:00,64.3,55.1,29.92,ESE,112,0.0,0.0,72,0.00,,,0.00,0.00,VWS V14.01,2013-05-07 01:38:00,
2013-05-06 21:41:00,64.1,54.5,29.92,ESE,112,0.0,0.0,71,0.00,,,0.00,0.00,VWS V14.01,2013-05-07 01:41:00,
2013-05-06 21:42:00,64.0,54.4,29.92,ESE,112,0.0,0.0,71,0.00,,,0.00,0.00,VWS V14.01,2013-05-07 01:42:00,
2013-05-06 21:43:00,63.9,54.7,29.92,ESE,112,0.0,0.0,72,0.00,,,0.00,0.00,VWS V14.01,2013-05-07 01:43:00,
2013-05-06 21:46:00,63.8,55.0,29.92,ESE,112,0.0,0.0,73,0.00,,,0.00,0.00,VWS V14.01,2013-05-07 01:46:00,
2013-05-06 21:47:00,63.7,54.9,29.92,ESE,112,0.0,0.0,73,0.00,,,0.00,0.00,VWS V14.01,2013-05-07 01:47:00,
2013-05-06 21:49:00,63.6,55.2,29.92,ESE,112,0.0,0.0,74,0.00,,,0.00,0.00,VWS V14.01,2013-05-07 01:49:00,
2013-05-06 21:51:00,63.4,55.0,29.92,ESE,112,0.0,0.0,74,0.00,,,0.00,0.00,VWS V14.01,2013-05-07 01:51:00,
2013-05-06 21:52:00,63.4,55.0,29.92,ESE,112,0.0,0.0,74,0.00,,,0.00,0.00,VWS V14.01,2013-05-07 01:52:00,
2013-05-06 21:54:00,63.3,54.9,29.92,ESE,112,0.0,0.0,74,0.00,,,0.00,0.00,VWS V14.01,2013-05-07 01:54:00,
2013-05-06 21:56:00,63.1,54.7,29.92,ESE,112,0.0,0.0,74,0.00,,,0.00,0.00,VWS V14.01,2013-05-07 01:56:00,
2013-05-06 21:57:00,63.1,55.1,29.93,ESE,112,0.0,0.0,75,0.00,,,0.00,0.00,VWS V14.01,2013-05-07 01:57:00,
2013-05-06 21:59:00,63.0,55.0,29.93,ESE,112,0.0,0.0,75,0.00,,,0.00,0.00,VWS V14.01,2013-05-07 01:59:00,
2013-05-06 22:01:00,62.8,54.8,29.93,ESE,112,0.0,0.0,75,0.00,,,0.00,0.00,VWS V14.01,2013-05-07 02:01:00,
2013-05-06 22:02:00,62.8,54.8,29.93,ESE,112,0.0,0.0,75,0.00,,,0.00,0.00,VWS V14.01,2013-05-07 02:02:00,
2013-05-06 22:04:00,62.7,54.7,29.93,ESE,112,0.0,0.0,75,0.00,,,0.00,0.00,VWS V14.01,2013-05-07 02:04:00,
2013-05-06 22:06:00,62.6,54.6,29.93,ESE,112,0.0,0.0,75,0.00,,,0.00,0.00,VWS V14.01,2013-05-07 02:06:00,
2013-05-06 22:07:00,62.5,54.5,29.93,ESE,112,0.0,0.0,75,0.00,,,0.00,0.00,VWS V14.01,2013-05-07 02:07:00,
2013-05-06 22:09:00,62.4,54.4,29.93,ESE,112,0.0,0.0,75,0.00,,,0.00,0.00,VWS V14.01,2013-05-07 02:09:00,
2013-05-06 22:11:00,62.3,54.7,29.93,ESE,112,0.0,0.0,76,0.00,,,0.00,0.00,VWS V14.01,2013-05-07 02:11:00,
2013-05-06 22:12:00,62.2,54.5,29.93,ESE,112,0.0,0.0,76,0.00,,,0.00,0.00,VWS V14.01,2013-05-07 02:12:00,
2013-05-06 22:14:00,62.1,54.5,29.93,ESE,112,0.0,0.0,76,0.00,,,0.00,0.00,VWS V14.01,2013-05-07 02:14:00,
2013-05-06 22:16:00,62.0,54.4,29.93,ESE,112,0.0,0.0,76,0.00,,,0.00,0.00,VWS V14.01,2013-05-07 02:16:00,
2013-05-06 22:17:00,62.0,54.7,29.93,ESE,112,0.0,0.0,77,0.00,,,0.00,0.00,VWS V14.01,2013-05-07 02:17:00,
2013-05-06 22:19:00,61.8,54.5,29.93,ESE,112,0.0,0.0,77,0.00,,,0.00,0.00,VWS V14.01,2013-05-07 02:19:00,
2013-05-06 22:21:00,61.7,54.8,29.93,ESE,112,0.0,0.0,78,0.00,,,0.00,0.00,VWS V14.01,2013-05-07 02:21:00,
2013-05-06 22:22:00,61.7,54.8,29.93,ESE,112,0.0,0.0,78,0.00,,,0.00,0.00,VWS V14.01,2013-05-07 02:22:00,
2013-05-06 22:24:00,61.6,54.7,29.93,ESE,112,0.0,0.0,78,0.00,,,0.00,0.00,VWS V14.01,2013-05-07 02:24:00,
2013-05-06 22:26:00,61.5,54.9,29.93,ESE,112,0.0,0.0,79,0.00,,,0.00,0.00,VWS V14.01,2013-05-07 02:26:00,
2013-05-06 22:27:00,61.5,54.9,29.93,ESE,112,0.0,0.0,79,0.00,,,0.00,0.00,VWS V14.01,2013-05-07 02:27:00,
2013-05-06 22:28:00,61.5,54.9,29.93,ESE,112,0.0,0.0,79,0.00,,,0.00,0.00,VWS V14.01,2013-05-07 02:28:00,
2013-05-06 22:29:00,61.5,54.9,29.93,ESE,112,0.0,0.0,79,0.00,,,0.00,0.00,VWS V14.01,2013-05-07 02:29:00,
2013-05-06 22:31:00,61.4,54.8,29.93,ESE,112,0.0,0.0,79,0.00,,,0.00,0.00,VWS V14.01,2013-05-07 02:31:00,
2013-05-06 22:32:00,61.4,54.8,29.93,ESE,112,0.0,0.0,79,0.00,,,0.00,0.00,VWS V14.01,2013-05-07 02:32:00,
2013-05-06 22:33:00,61.4,54.8,29.93,ESE,112,0.0,0.0,79,0.00,,,0.00,0.00,VWS V14.01,2013-05-07 02:33:00,
2013-05-06 22:34:00,61.3,54.7,29.93,ESE,112,0.0,0.0,79,0.00,,,0.00,0.00,VWS V14.01,2013-05-07 02:34:00,
2013-05-06 22:36:00,61.3,55.1,29.93,ESE,112,0.0,0.0,80,0.00,,,0.00,0.00,VWS V14.01,2013-05-07 02:36:00,
2013-05-06 22:37:00,61.3,55.1,29.93,ESE,112,0.0,0.0,80,0.00,,,0.00,0.00,VWS V14.01,2013-05-07 02:37:00,
2013-05-06 22:38:00,61.3,55.1,29.93,ESE,112,0.0,0.0,80,0.00,,,0.00,0.00,VWS V14.01,2013-05-07 02:38:00,
2013-05-06 22:39:00,61.3,55.4,29.93,ESE,112,0.0,0.0,81,0.00,,,0.00,0.00,VWS V14.01,2013-05-07 02:39:00,
2013-05-06 22:41:00,61.3,55.1,29.93,ESE,112,0.0,0.0,80,0.00,,,0.00,0.00,VWS V14.01,2013-05-07 02:41:00,
2013-05-06 22:42:00,61.3,55.4,29.93,ESE,112,0.0,0.0,81,0.00,,,0.00,0.00,VWS V14.01,2013-05-07 02:42:00,
2013-05-06 22:43:00,61.2,55.3,29.93,ESE,112,0.0,0.0,81,0.00,,,0.00,0.00,VWS V14.01,2013-05-07 02:43:00,
2013-05-06 22:44:00,61.2,55.3,29.93,ESE,112,0.0,0.0,81,0.00,,,0.00,0.00,VWS V14.01,2013-05-07 02:44:00,
2013-05-06 22:46:00,61.2,55.3,29.93,ESE,112,0.0,0.0,81,0.00,,,0.00,0.00,VWS V14.01,2013-05-07 02:46:00,
2013-05-06 22:47:00,61.1,55.2,29.94,ESE,112,0.0,0.0,81,0.00,,,0.00,0.00,VWS V14.01,2013-05-07 02:47:00,
2013-05-06 22:48:00,61.1,55.2,29.94,ESE,112,0.0,0.0,81,0.00,,,0.00,0.00,VWS V14.01,2013-05-07 02:48:00,
2013-05-06 22:49:00,61.1,55.6,29.94,ESE,112,0.0,0.0,82,0.00,,,0.00,0.00,VWS V14.01,2013-05-07 02:49:00,
2013-05-06 22:52:00,61.0,55.1,29.94,ESE,112,0.0,0.0,81,0.00,,,0.00,0.00,VWS V14.01,2013-05-07 02:52:00,
2013-05-06 22:53:00,61.0,55.5,29.94,ESE,112,0.0,0.0,82,0.00,,,0.00,0.00,VWS V14.01,2013-05-07 02:53:00,
2013-05-06 22:54:00,61.0,55.5,29.94,ESE,112,0.0,0.0,82,0.00,,,0.00,0.00,VWS V14.01,2013-05-07 02:54:00,
2013-05-06 22:57:00,60.9,55.4,29.94,ESE,112,0.0,0.0,82,0.00,,,0.00,0.00,VWS V14.01,2013-05-07 02:57:00,
2013-05-06 22:58:00,60.9,55.4,29.94,ESE,112,0.0,0.0,82,0.00,,,0.00,0.00,VWS V14.01,2013-05-07 02:58:00,
2013-05-06 22:59:00,60.9,55.4,29.94,ESE,112,0.0,0.0,82,0.00,,,0.00,0.00,VWS V14.01,2013-05-07 02:59:00,
2013-05-06 23:02:00,60.9,55.4,29.94,ESE,112,0.0,0.0,82,0.00,,,0.00,0.00,VWS V14.01,2013-05-07 03:02:00,
2013-05-06 23:03:00,60.8,55.3,29.94,ESE,112,0.0,0.0,82,0.00,,,0.00,0.00,VWS V14.01,2013-05-07 03:03:00,
2013-05-06 23:04:00,60.9,55.4,29.94,ESE,112,0.0,0.0,82,0.00,,,0.00,0.00,VWS V14.01,2013-05-07 03:04:00,
2013-05-06 23:07:00,60.8,55.6,29.94,ESE,112,0.0,0.0,83,0.00,,,0.00,0.00,VWS V14.01,2013-05-07 03:07:00,
2013-05-06 23:08:00,60.8,55.6,29.94,ESE,112,0.0,0.0,83,0.00,,,0.00,0.00,VWS V14.01,2013-05-07 03:08:00,
2013-05-06 23:10:00,60.8,55.6,29.94,ESE,112,0.0,0.0,83,0.00,,,0.00,0.00,VWS V14.01,2013-05-07 03:10:00,
2013-05-06 23:12:00,60.7,55.5,29.94,ESE,112,0.0,0.0,83,0.00,,,0.00,0.00,VWS V14.01,2013-05-07 03:12:00,
2013-05-06 23:13:00,60.7,55.5,29.93,ESE,112,0.0,0.0,83,0.00,,,0.00,0.00,VWS V14.01,2013-05-07 03:13:00,
2013-05-06 23:15:00,60.7,55.5,29.94,ESE,112,0.0,0.0,83,0.00,,,0.00,0.00,VWS V14.01,2013-05-07 03:15:00,
2013-05-06 23:17:00,60.7,55.5,29.94,ESE,112,0.0,0.0,83,0.00,,,0.00,0.00,VWS V14.01,2013-05-07 03:17:00,
2013-05-06 23:18:00,60.7,55.5,29.93,ESE,112,0.0,0.0,83,0.00,,,0.00,0.00,VWS V14.01,2013-05-07 03:18:00,
2013-05-06 23:20:00,60.6,55.4,29.93,ESE,112,0.0,0.0,83,0.00,,,0.00,0.00,VWS V14.01,2013-05-07 03:20:00,
2013-05-06 23:22:00,60.6,55.4,29.93,ESE,112,0.0,0.0,83,0.00,,,0.00,0.00,VWS V14.01,2013-05-07 03:22:00,
2013-05-06 23:23:00,60.6,55.4,29.93,ESE,112,0.0,0.0,83,0.00,,,0.00,0.00,VWS V14.01,2013-05-07 03:23:00,
2013-05-06 23:25:00,60.6,55.4,29.93,ESE,112,0.0,0.0,83,0.00,,,0.00,0.00,VWS V14.01,2013-05-07 03:25:00,
2013-05-06 23:27:00,60.5,55.7,29.93,ESE,112,0.0,0.0,84,0.00,,,0.00,0.00,VWS V14.01,2013-05-07 03:27:00,
2013-05-06 23:28:00,60.5,55.3,29.93,ESE,112,0.0,0.0,83,0.00,,,0.00,0.00,VWS V14.01,2013-05-07 03:28:00,
2013-05-06 23:30:00,60.5,55.7,29.93,ESE,112,0.0,0.0,84,0.00,,,0.00,0.00,VWS V14.01,2013-05-07 03:30:00,
2013-05-06 23:32:00,60.5,55.7,29.93,ESE,112,0.0,0.0,84,0.00,,,0.00,0.00,VWS V14.01,2013-05-07 03:32:00,
2013-05-06 23:33:00,60.5,55.7,29.93,ESE,112,0.0,0.0,84,0.00,,,0.00,0.00,VWS V14.01,2013-05-07 03:33:00,
2013-05-06 23:34:00,60.5,55.7,29.93,ESE,112,0.0,0.0,84,0.00,,,0.00,0.00,VWS V14.01,2013-05-07 03:34:00,
2013-05-06 23:35:00,60.5,55.7,29.93,ESE,112,0.0,0.0,84,0.00,,,0.00,0.00,VWS V14.01,2013-05-07 03:35:00,
2013-05-06 23:37:00,60.4,55.5,29.93,ESE,112,0.0,0.0,84,0.00,,,0.00,0.00,VWS V14.01,2013-05-07 03:37:00,
2013-05-06 23:38:00,60.4,55.5,29.93,ESE,112,0.0,0.0,84,0.00,,,0.00,0.00,VWS V14.01,2013-05-07 03:38:00,
2013-05-06 23:39:00,60.4,55.5,29.93,ESE,112,0.0,0.0,84,0.00,,,0.00,0.00,VWS V14.01,2013-05-07 03:39:00,
2013-05-06 23:40:00,60.4,55.5,29.93,ESE,112,0.0,0.0,84,0.00,,,0.00,0.00,VWS V14.01,2013-05-07 03:40:00,
2013-05-06 23:42:00,60.3,55.1,29.93,ESE,112,0.0,0.0,83,0.00,,,0.00,0.00,VWS V14.01,2013-05-07 03:42:00,
2013-05-06 23:43:00,60.3,55.1,29.93,ESE,112,0.0,0.0,83,0.00,,,0.00,0.00,VWS V14.01,2013-05-07 03:43:00,
2013-05-06 23:44:00,60.3,55.1,29.93,ESE,112,0.0,0.0,83,0.00,,,0.00,0.00,VWS V14.01,2013-05-07 03:44:00,
2013-05-06 23:45:00,60.2,55.0,29.93,ESE,112,0.0,0.0,83,0.00,,,0.00,0.00,VWS V14.01,2013-05-07 03:45:00,
2013-05-06 23:47:00,60.2,55.3,29.93,ESE,112,0.0,0.0,84,0.00,,,0.00,0.00,VWS V14.01,2013-05-07 03:47:00,
2013-05-06 23:48:00,60.2,55.3,29.93,ESE,112,0.0,0.0,84,0.00,,,0.00,0.00,VWS V14.01,2013-05-07 03:48:00,
2013-05-06 23:49:00,60.2,55.3,29.93,ESE,112,0.0,0.0,84,0.00,,,0.00,0.00,VWS V14.01,2013-05-07 03:49:00,
2013-05-06 23:50:00,60.2,55.3,29.93,ESE,112,0.0,0.0,84,0.00,,,0.00,0.00,VWS V14.01,2013-05-07 03:50:00,
2013-05-06 23:52:00,60.1,55.3,29.93,ESE,112,0.0,0.0,84,0.00,,,0.00,0.00,VWS V14.01,2013-05-07 03:52:00,
2013-05-06 23:53:00,60.1,55.3,29.93,ESE,112,0.0,0.0,84,0.00,,,0.00,0.00,VWS V14.01,2013-05-07 03:53:00,
2013-05-06 23:54:00,60.1,55.3,29.93,ESE,112,0.0,0.0,84,0.00,,,0.00,0.00,VWS V14.01,2013-05-07 03:54:00,
2013-05-06 23:55:00,60.1,55.3,29.93,ESE,112,0.0,0.0,84,0.00,,,0.00,0.00,VWS V14.01,2013-05-07 03:55:00,
2013-05-06 23:57:00,60.0,55.2,29.93,ESE,112,0.0,0.0,84,0.00,,,0.00,0.00,VWS V14.01,2013-05-07 03:57:00,
2013-05-06 23:58:00,60.0,55.2,29.93,ESE,112,0.0,0.0,84,0.00,,,0.00,0.00,VWS V14.01,2013-05-07 03:58:00,
2013-05-06 23:59:00,60.0,55.2,29.94,ESE,112,0.0,0.0,84,0.00,,,0.00,0.00,VWS V14.01,2013-05-07 03:59:00,